<?xml version="1.0" encoding="UTF-8" standalone="no" ?>
<gpx xmlns="http://www.topografix.com/GPX/1/1" xmlns:xsi="http://www.w3.org/2001/XMLSchema-instance" xsi:schemaLocation="http://www.topografix.com/GPX/1/1 http://www.topografix.com/GPX/1/1/gpx.xsd" version="1.1" creator="VisuGPX - https://www.visugpx.com">
  <metadata>
    <name>CORSE - PEDESTRE - Macinaggio à Barcaggio - Sentier des Douaniers </name>
    <desc><![CDATA[Soleil découverte du chemin des douaniers au Cap]]></desc>
  </metadata>
  <trk>
    <name><![CDATA[ACTIVE LOG 001]]></name>
    <trkseg>
      <trkpt lat="42.95938" lon="9.45328">
        <ele>0.618042</ele>
        <time>2012-09-08T08:01:57Z</time>
      </trkpt>
      <trkpt lat="42.95948" lon="9.45318">
        <ele>-0.343384</ele>
        <time>2012-09-08T08:02:19Z</time>
      </trkpt>
      <trkpt lat="42.95953" lon="9.45314">
        <ele>3.02124</ele>
        <time>2012-09-08T08:02:32Z</time>
      </trkpt>
      <trkpt lat="42.9596" lon="9.45308">
        <ele>1.098633</ele>
        <time>2012-09-08T08:02:39Z</time>
      </trkpt>
      <trkpt lat="42.95976" lon="9.45277">
        <ele>1.579346</ele>
        <time>2012-09-08T08:03:00Z</time>
      </trkpt>
      <trkpt lat="42.96003" lon="9.45258">
        <ele>0.618042</ele>
        <time>2012-09-08T08:03:23Z</time>
      </trkpt>
      <trkpt lat="42.96009" lon="9.45253">
        <ele>0.618042</ele>
        <time>2012-09-08T08:03:28Z</time>
      </trkpt>
      <trkpt lat="42.96023" lon="9.4525">
        <ele>0.618042</ele>
        <time>2012-09-08T08:03:40Z</time>
      </trkpt>
      <trkpt lat="42.96061" lon="9.45225">
        <ele>1.098633</ele>
        <time>2012-09-08T08:04:10Z</time>
      </trkpt>
      <trkpt lat="42.96084" lon="9.4521">
        <ele>1.579346</ele>
        <time>2012-09-08T08:04:29Z</time>
      </trkpt>
      <trkpt lat="42.9609" lon="9.4519">
        <ele>1.579346</ele>
        <time>2012-09-08T08:04:42Z</time>
      </trkpt>
      <trkpt lat="42.96117" lon="9.45173">
        <ele>2.060059</ele>
        <time>2012-09-08T08:05:04Z</time>
      </trkpt>
      <trkpt lat="42.96144" lon="9.45168">
        <ele>1.579346</ele>
        <time>2012-09-08T08:05:24Z</time>
      </trkpt>
      <trkpt lat="42.96167" lon="9.4516">
        <ele>1.098633</ele>
        <time>2012-09-08T08:05:46Z</time>
      </trkpt>
      <trkpt lat="42.96167" lon="9.4516">
        <ele>0.618042</ele>
        <time>2012-09-08T08:05:51Z</time>
      </trkpt>
      <trkpt lat="42.96194" lon="9.45153">
        <ele>0.137451</ele>
        <time>2012-09-08T08:06:11Z</time>
      </trkpt>
      <trkpt lat="42.96217" lon="9.45147">
        <ele>0.618042</ele>
        <time>2012-09-08T08:06:30Z</time>
      </trkpt>
      <trkpt lat="42.96245" lon="9.45142">
        <ele>0.137451</ele>
        <time>2012-09-08T08:06:51Z</time>
      </trkpt>
      <trkpt lat="42.96275" lon="9.45141">
        <ele>-0.343384</ele>
        <time>2012-09-08T08:07:14Z</time>
      </trkpt>
      <trkpt lat="42.9628" lon="9.4514">
        <ele>0.618042</ele>
        <time>2012-09-08T08:07:28Z</time>
      </trkpt>
      <trkpt lat="42.96305" lon="9.45139">
        <ele>0.137451</ele>
        <time>2012-09-08T08:07:49Z</time>
      </trkpt>
      <trkpt lat="42.96328" lon="9.4514">
        <ele>0.618042</ele>
        <time>2012-09-08T08:08:07Z</time>
      </trkpt>
      <trkpt lat="42.96358" lon="9.45142">
        <ele>0.618042</ele>
        <time>2012-09-08T08:08:29Z</time>
      </trkpt>
      <trkpt lat="42.96383" lon="9.45149">
        <ele>1.098633</ele>
        <time>2012-09-08T08:08:48Z</time>
      </trkpt>
      <trkpt lat="42.96409" lon="9.45156">
        <ele>1.098633</ele>
        <time>2012-09-08T08:09:08Z</time>
      </trkpt>
      <trkpt lat="42.96431" lon="9.45164">
        <ele>1.579346</ele>
        <time>2012-09-08T08:09:30Z</time>
      </trkpt>
      <trkpt lat="42.96457" lon="9.45173">
        <ele>2.060059</ele>
        <time>2012-09-08T08:09:50Z</time>
      </trkpt>
      <trkpt lat="42.96482" lon="9.45185">
        <ele>1.098633</ele>
        <time>2012-09-08T08:10:10Z</time>
      </trkpt>
      <trkpt lat="42.96513" lon="9.45202">
        <ele>0.618042</ele>
        <time>2012-09-08T08:10:34Z</time>
      </trkpt>
      <trkpt lat="42.96541" lon="9.45223">
        <ele>1.579346</ele>
        <time>2012-09-08T08:10:57Z</time>
      </trkpt>
      <trkpt lat="42.96569" lon="9.45246">
        <ele>0.618042</ele>
        <time>2012-09-08T08:11:20Z</time>
      </trkpt>
      <trkpt lat="42.96599" lon="9.45278">
        <ele>1.098633</ele>
        <time>2012-09-08T08:11:47Z</time>
      </trkpt>
      <trkpt lat="42.96616" lon="9.45302">
        <ele>1.579346</ele>
        <time>2012-09-08T08:12:05Z</time>
      </trkpt>
      <trkpt lat="42.96634" lon="9.45321">
        <ele>1.579346</ele>
        <time>2012-09-08T08:12:22Z</time>
      </trkpt>
      <trkpt lat="42.96641" lon="9.45345">
        <ele>3.02124</ele>
        <time>2012-09-08T08:12:39Z</time>
      </trkpt>
      <trkpt lat="42.96645" lon="9.4536">
        <ele>3.501953</ele>
        <time>2012-09-08T08:12:50Z</time>
      </trkpt>
      <trkpt lat="42.96649" lon="9.45366">
        <ele>3.501953</ele>
        <time>2012-09-08T08:12:56Z</time>
      </trkpt>
      <trkpt lat="42.96648" lon="9.45387">
        <ele>4.943848</ele>
        <time>2012-09-08T08:13:09Z</time>
      </trkpt>
      <trkpt lat="42.96647" lon="9.45391">
        <ele>5.905273</ele>
        <time>2012-09-08T08:13:13Z</time>
      </trkpt>
      <trkpt lat="42.96647" lon="9.45403">
        <ele>7.347168</ele>
        <time>2012-09-08T08:13:23Z</time>
      </trkpt>
      <trkpt lat="42.96644" lon="9.45408">
        <ele>6.866455</ele>
        <time>2012-09-08T08:13:27Z</time>
      </trkpt>
      <trkpt lat="42.96632" lon="9.45435">
        <ele>9.269897</ele>
        <time>2012-09-08T08:13:49Z</time>
      </trkpt>
      <trkpt lat="42.96625" lon="9.45452">
        <ele>11.192505</ele>
        <time>2012-09-08T08:14:10Z</time>
      </trkpt>
      <trkpt lat="42.96619" lon="9.45472">
        <ele>14.076416</ele>
        <time>2012-09-08T08:14:24Z</time>
      </trkpt>
      <trkpt lat="42.9661" lon="9.45496">
        <ele>17.441162</ele>
        <time>2012-09-08T08:14:41Z</time>
      </trkpt>
      <trkpt lat="42.96603" lon="9.4552">
        <ele>20.324951</ele>
        <time>2012-09-08T08:14:58Z</time>
      </trkpt>
      <trkpt lat="42.966" lon="9.45545">
        <ele>22.728271</ele>
        <time>2012-09-08T08:15:13Z</time>
      </trkpt>
      <trkpt lat="42.9659" lon="9.45564">
        <ele>20.324951</ele>
        <time>2012-09-08T08:15:27Z</time>
      </trkpt>
      <trkpt lat="42.96581" lon="9.45592">
        <ele>17.441162</ele>
        <time>2012-09-08T08:15:43Z</time>
      </trkpt>
      <trkpt lat="42.96581" lon="9.45594">
        <ele>17.921753</ele>
        <time>2012-09-08T08:15:44Z</time>
      </trkpt>
      <trkpt lat="42.96581" lon="9.45597">
        <ele>17.921753</ele>
        <time>2012-09-08T08:15:46Z</time>
      </trkpt>
      <trkpt lat="42.9658" lon="9.45604">
        <ele>16.960449</ele>
        <time>2012-09-08T08:15:50Z</time>
      </trkpt>
      <trkpt lat="42.96579" lon="9.45612">
        <ele>16.960449</ele>
        <time>2012-09-08T08:15:54Z</time>
      </trkpt>
      <trkpt lat="42.96576" lon="9.45621">
        <ele>16.479736</ele>
        <time>2012-09-08T08:16:01Z</time>
      </trkpt>
      <trkpt lat="42.96574" lon="9.45626">
        <ele>15.999023</ele>
        <time>2012-09-08T08:16:05Z</time>
      </trkpt>
      <trkpt lat="42.96569" lon="9.45656">
        <ele>15.518433</ele>
        <time>2012-09-08T08:16:22Z</time>
      </trkpt>
      <trkpt lat="42.9657" lon="9.45671">
        <ele>16.479736</ele>
        <time>2012-09-08T08:16:31Z</time>
      </trkpt>
      <trkpt lat="42.96568" lon="9.45699">
        <ele>15.518433</ele>
        <time>2012-09-08T08:16:51Z</time>
      </trkpt>
      <trkpt lat="42.96567" lon="9.45718">
        <ele>16.479736</ele>
        <time>2012-09-08T08:17:11Z</time>
      </trkpt>
      <trkpt lat="42.96568" lon="9.45719">
        <ele>16.479736</ele>
        <time>2012-09-08T08:17:12Z</time>
      </trkpt>
      <trkpt lat="42.96576" lon="9.45726">
        <ele>15.518433</ele>
        <time>2012-09-08T08:17:29Z</time>
      </trkpt>
      <trkpt lat="42.96576" lon="9.45727">
        <ele>15.999023</ele>
        <time>2012-09-08T08:17:31Z</time>
      </trkpt>
      <trkpt lat="42.96592" lon="9.4572">
        <ele>17.441162</ele>
        <time>2012-09-08T08:17:46Z</time>
      </trkpt>
      <trkpt lat="42.96595" lon="9.45715">
        <ele>17.921753</ele>
        <time>2012-09-08T08:17:51Z</time>
      </trkpt>
      <trkpt lat="42.96599" lon="9.45706">
        <ele>19.36377</ele>
        <time>2012-09-08T08:18:07Z</time>
      </trkpt>
      <trkpt lat="42.96601" lon="9.45704">
        <ele>19.36377</ele>
        <time>2012-09-08T08:18:11Z</time>
      </trkpt>
      <trkpt lat="42.96608" lon="9.4569">
        <ele>21.286377</ele>
        <time>2012-09-08T08:18:25Z</time>
      </trkpt>
      <trkpt lat="42.96609" lon="9.45688">
        <ele>22.247559</ele>
        <time>2012-09-08T08:18:27Z</time>
      </trkpt>
      <trkpt lat="42.96611" lon="9.45679">
        <ele>24.651001</ele>
        <time>2012-09-08T08:18:42Z</time>
      </trkpt>
      <trkpt lat="42.96613" lon="9.45676">
        <ele>25.131714</ele>
        <time>2012-09-08T08:18:45Z</time>
      </trkpt>
      <trkpt lat="42.96619" lon="9.45661">
        <ele>28.976929</ele>
        <time>2012-09-08T08:19:02Z</time>
      </trkpt>
      <trkpt lat="42.9662" lon="9.4565">
        <ele>30.899536</ele>
        <time>2012-09-08T08:19:17Z</time>
      </trkpt>
      <trkpt lat="42.96626" lon="9.4564">
        <ele>32.822266</ele>
        <time>2012-09-08T08:19:28Z</time>
      </trkpt>
      <trkpt lat="42.9664" lon="9.45623">
        <ele>34.26416</ele>
        <time>2012-09-08T08:19:45Z</time>
      </trkpt>
      <trkpt lat="42.96667" lon="9.45617">
        <ele>32.822266</ele>
        <time>2012-09-08T08:20:07Z</time>
      </trkpt>
      <trkpt lat="42.96689" lon="9.45613">
        <ele>32.341553</ele>
        <time>2012-09-08T08:20:25Z</time>
      </trkpt>
      <trkpt lat="42.96708" lon="9.45616">
        <ele>29.93811</ele>
        <time>2012-09-08T08:20:44Z</time>
      </trkpt>
      <trkpt lat="42.96729" lon="9.45615">
        <ele>28.015503</ele>
        <time>2012-09-08T08:21:02Z</time>
      </trkpt>
      <trkpt lat="42.96753" lon="9.45619">
        <ele>27.054321</ele>
        <time>2012-09-08T08:21:20Z</time>
      </trkpt>
      <trkpt lat="42.9678" lon="9.45616">
        <ele>26.092896</ele>
        <time>2012-09-08T08:21:41Z</time>
      </trkpt>
      <trkpt lat="42.96786" lon="9.45616">
        <ele>25.612305</ele>
        <time>2012-09-08T08:21:46Z</time>
      </trkpt>
      <trkpt lat="42.96794" lon="9.45616">
        <ele>25.131714</ele>
        <time>2012-09-08T08:21:53Z</time>
      </trkpt>
      <trkpt lat="42.96808" lon="9.45611">
        <ele>25.612305</ele>
        <time>2012-09-08T08:22:08Z</time>
      </trkpt>
      <trkpt lat="42.96818" lon="9.45604">
        <ele>22.728271</ele>
        <time>2012-09-08T08:22:18Z</time>
      </trkpt>
      <trkpt lat="42.96838" lon="9.45587">
        <ele>20.805664</ele>
        <time>2012-09-08T08:22:36Z</time>
      </trkpt>
      <trkpt lat="42.96857" lon="9.45572">
        <ele>19.36377</ele>
        <time>2012-09-08T08:22:55Z</time>
      </trkpt>
      <trkpt lat="42.9688" lon="9.45562">
        <ele>18.402344</ele>
        <time>2012-09-08T08:23:14Z</time>
      </trkpt>
      <trkpt lat="42.96903" lon="9.45558">
        <ele>17.441162</ele>
        <time>2012-09-08T08:23:31Z</time>
      </trkpt>
      <trkpt lat="42.9692" lon="9.45555">
        <ele>16.960449</ele>
        <time>2012-09-08T08:23:48Z</time>
      </trkpt>
      <trkpt lat="42.96934" lon="9.45555">
        <ele>15.03772</ele>
        <time>2012-09-08T08:24:02Z</time>
      </trkpt>
      <trkpt lat="42.96944" lon="9.45555">
        <ele>15.03772</ele>
        <time>2012-09-08T08:24:10Z</time>
      </trkpt>
      <trkpt lat="42.96948" lon="9.45554">
        <ele>14.557007</ele>
        <time>2012-09-08T08:24:14Z</time>
      </trkpt>
      <trkpt lat="42.96967" lon="9.45548">
        <ele>13.115112</ele>
        <time>2012-09-08T08:24:33Z</time>
      </trkpt>
      <trkpt lat="42.96983" lon="9.45543">
        <ele>13.595825</ele>
        <time>2012-09-08T08:24:49Z</time>
      </trkpt>
      <trkpt lat="42.96994" lon="9.45543">
        <ele>13.595825</ele>
        <time>2012-09-08T08:25:01Z</time>
      </trkpt>
      <trkpt lat="42.97013" lon="9.45536">
        <ele>10.711792</ele>
        <time>2012-09-08T08:25:18Z</time>
      </trkpt>
      <trkpt lat="42.97035" lon="9.45526">
        <ele>11.192505</ele>
        <time>2012-09-08T08:25:37Z</time>
      </trkpt>
      <trkpt lat="42.97041" lon="9.45522">
        <ele>13.595825</ele>
        <time>2012-09-08T08:25:46Z</time>
      </trkpt>
      <trkpt lat="42.9706" lon="9.45513">
        <ele>15.999023</ele>
        <time>2012-09-08T08:26:05Z</time>
      </trkpt>
      <trkpt lat="42.9707" lon="9.45502">
        <ele>18.402344</ele>
        <time>2012-09-08T08:26:22Z</time>
      </trkpt>
      <trkpt lat="42.97073" lon="9.45499">
        <ele>18.402344</ele>
        <time>2012-09-08T08:26:40Z</time>
      </trkpt>
      <trkpt lat="42.97079" lon="9.4549">
        <ele>19.36377</ele>
        <time>2012-09-08T08:26:47Z</time>
      </trkpt>
      <trkpt lat="42.97083" lon="9.45485">
        <ele>20.324951</ele>
        <time>2012-09-08T08:26:52Z</time>
      </trkpt>
      <trkpt lat="42.97093" lon="9.45469">
        <ele>23.208984</ele>
        <time>2012-09-08T08:27:05Z</time>
      </trkpt>
      <trkpt lat="42.97105" lon="9.45454">
        <ele>25.612305</ele>
        <time>2012-09-08T08:27:19Z</time>
      </trkpt>
      <trkpt lat="42.97111" lon="9.45452">
        <ele>25.131714</ele>
        <time>2012-09-08T08:27:24Z</time>
      </trkpt>
      <trkpt lat="42.9712" lon="9.45445">
        <ele>25.612305</ele>
        <time>2012-09-08T08:27:32Z</time>
      </trkpt>
      <trkpt lat="42.97132" lon="9.45449">
        <ele>24.651001</ele>
        <time>2012-09-08T08:27:42Z</time>
      </trkpt>
      <trkpt lat="42.97137" lon="9.45452">
        <ele>24.651001</ele>
        <time>2012-09-08T08:27:46Z</time>
      </trkpt>
      <trkpt lat="42.97146" lon="9.45458">
        <ele>24.170288</ele>
        <time>2012-09-08T08:27:59Z</time>
      </trkpt>
      <trkpt lat="42.97156" lon="9.45463">
        <ele>23.208984</ele>
        <time>2012-09-08T08:28:07Z</time>
      </trkpt>
      <trkpt lat="42.97172" lon="9.45472">
        <ele>22.247559</ele>
        <time>2012-09-08T08:28:26Z</time>
      </trkpt>
      <trkpt lat="42.97173" lon="9.45473">
        <ele>22.728271</ele>
        <time>2012-09-08T08:28:32Z</time>
      </trkpt>
      <trkpt lat="42.97192" lon="9.45472">
        <ele>20.805664</ele>
        <time>2012-09-08T08:28:51Z</time>
      </trkpt>
      <trkpt lat="42.97193" lon="9.45471">
        <ele>20.805664</ele>
        <time>2012-09-08T08:28:54Z</time>
      </trkpt>
      <trkpt lat="42.97196" lon="9.45466">
        <ele>20.324951</ele>
        <time>2012-09-08T08:28:58Z</time>
      </trkpt>
      <trkpt lat="42.97202" lon="9.4546">
        <ele>18.402344</ele>
        <time>2012-09-08T08:29:04Z</time>
      </trkpt>
      <trkpt lat="42.97224" lon="9.45438">
        <ele>16.479736</ele>
        <time>2012-09-08T08:29:25Z</time>
      </trkpt>
      <trkpt lat="42.97241" lon="9.45404">
        <ele>14.557007</ele>
        <time>2012-09-08T08:29:46Z</time>
      </trkpt>
      <trkpt lat="42.97259" lon="9.4537">
        <ele>12.634399</ele>
        <time>2012-09-08T08:30:08Z</time>
      </trkpt>
      <trkpt lat="42.9728" lon="9.45371">
        <ele>9.269897</ele>
        <time>2012-09-08T08:30:24Z</time>
      </trkpt>
      <trkpt lat="42.97307" lon="9.45377">
        <ele>6.385864</ele>
        <time>2012-09-08T08:30:44Z</time>
      </trkpt>
      <trkpt lat="42.97321" lon="9.45383">
        <ele>5.905273</ele>
        <time>2012-09-08T08:30:56Z</time>
      </trkpt>
      <trkpt lat="42.97346" lon="9.45387">
        <ele>3.982666</ele>
        <time>2012-09-08T08:31:14Z</time>
      </trkpt>
      <trkpt lat="42.97371" lon="9.45388">
        <ele>3.02124</ele>
        <time>2012-09-08T08:31:31Z</time>
      </trkpt>
      <trkpt lat="42.97403" lon="9.45397">
        <ele>3.501953</ele>
        <time>2012-09-08T08:31:54Z</time>
      </trkpt>
      <trkpt lat="42.97431" lon="9.45399">
        <ele>3.982666</ele>
        <time>2012-09-08T08:32:14Z</time>
      </trkpt>
      <trkpt lat="42.97448" lon="9.45414">
        <ele>2.060059</ele>
        <time>2012-09-08T08:32:29Z</time>
      </trkpt>
      <trkpt lat="42.97471" lon="9.4542">
        <ele>1.579346</ele>
        <time>2012-09-08T08:32:47Z</time>
      </trkpt>
      <trkpt lat="42.9749" lon="9.45428">
        <ele>1.098633</ele>
        <time>2012-09-08T08:33:04Z</time>
      </trkpt>
      <trkpt lat="42.97504" lon="9.4543">
        <ele>2.540649</ele>
        <time>2012-09-08T08:33:17Z</time>
      </trkpt>
      <trkpt lat="42.97513" lon="9.45438">
        <ele>2.540649</ele>
        <time>2012-09-08T08:33:26Z</time>
      </trkpt>
      <trkpt lat="42.97541" lon="9.4545">
        <ele>1.579346</ele>
        <time>2012-09-08T08:33:50Z</time>
      </trkpt>
      <trkpt lat="42.97565" lon="9.45464">
        <ele>3.02124</ele>
        <time>2012-09-08T08:34:12Z</time>
      </trkpt>
      <trkpt lat="42.97589" lon="9.45485">
        <ele>1.579346</ele>
        <time>2012-09-08T08:34:34Z</time>
      </trkpt>
      <trkpt lat="42.97609" lon="9.45509">
        <ele>2.540649</ele>
        <time>2012-09-08T08:34:55Z</time>
      </trkpt>
      <trkpt lat="42.97628" lon="9.45524">
        <ele>2.540649</ele>
        <time>2012-09-08T08:35:13Z</time>
      </trkpt>
      <trkpt lat="42.97638" lon="9.45536">
        <ele>1.579346</ele>
        <time>2012-09-08T08:35:24Z</time>
      </trkpt>
      <trkpt lat="42.97642" lon="9.45538">
        <ele>1.579346</ele>
        <time>2012-09-08T08:35:29Z</time>
      </trkpt>
      <trkpt lat="42.97645" lon="9.45541">
        <ele>2.540649</ele>
        <time>2012-09-08T08:35:42Z</time>
      </trkpt>
      <trkpt lat="42.97645" lon="9.45543">
        <ele>2.060059</ele>
        <time>2012-09-08T08:35:51Z</time>
      </trkpt>
      <trkpt lat="42.97647" lon="9.45549">
        <ele>2.060059</ele>
        <time>2012-09-08T08:35:55Z</time>
      </trkpt>
      <trkpt lat="42.97655" lon="9.45578">
        <ele>3.501953</ele>
        <time>2012-09-08T08:36:15Z</time>
      </trkpt>
      <trkpt lat="42.97669" lon="9.45612">
        <ele>3.982666</ele>
        <time>2012-09-08T08:36:36Z</time>
      </trkpt>
      <trkpt lat="42.97674" lon="9.45643">
        <ele>2.540649</ele>
        <time>2012-09-08T08:36:54Z</time>
      </trkpt>
      <trkpt lat="42.97685" lon="9.45679">
        <ele>2.540649</ele>
        <time>2012-09-08T08:37:14Z</time>
      </trkpt>
      <trkpt lat="42.97691" lon="9.45695">
        <ele>1.098633</ele>
        <time>2012-09-08T08:37:26Z</time>
      </trkpt>
      <trkpt lat="42.97695" lon="9.45713">
        <ele>-0.343384</ele>
        <time>2012-09-08T08:37:41Z</time>
      </trkpt>
      <trkpt lat="42.9769" lon="9.45721">
        <ele>0.618042</ele>
        <time>2012-09-08T08:37:48Z</time>
      </trkpt>
      <trkpt lat="42.97687" lon="9.45727">
        <ele>0.618042</ele>
        <time>2012-09-08T08:37:52Z</time>
      </trkpt>
      <trkpt lat="42.97687" lon="9.45734">
        <ele>0.137451</ele>
        <time>2012-09-08T08:37:56Z</time>
      </trkpt>
      <trkpt lat="42.97688" lon="9.45762">
        <ele>1.098633</ele>
        <time>2012-09-08T08:38:13Z</time>
      </trkpt>
      <trkpt lat="42.97684" lon="9.4579">
        <ele>1.579346</ele>
        <time>2012-09-08T08:38:30Z</time>
      </trkpt>
      <trkpt lat="42.97682" lon="9.45809">
        <ele>2.060059</ele>
        <time>2012-09-08T08:38:47Z</time>
      </trkpt>
      <trkpt lat="42.97682" lon="9.45813">
        <ele>3.02124</ele>
        <time>2012-09-08T08:38:50Z</time>
      </trkpt>
      <trkpt lat="42.97683" lon="9.45821">
        <ele>3.501953</ele>
        <time>2012-09-08T08:39:07Z</time>
      </trkpt>
      <trkpt lat="42.97683" lon="9.45821">
        <ele>3.02124</ele>
        <time>2012-09-08T08:39:14Z</time>
      </trkpt>
      <trkpt lat="42.97681" lon="9.4583">
        <ele>3.982666</ele>
        <time>2012-09-08T08:39:26Z</time>
      </trkpt>
      <trkpt lat="42.97683" lon="9.45833">
        <ele>3.501953</ele>
        <time>2012-09-08T08:39:31Z</time>
      </trkpt>
      <trkpt lat="42.97702" lon="9.45838">
        <ele>5.905273</ele>
        <time>2012-09-08T08:39:50Z</time>
      </trkpt>
      <trkpt lat="42.97717" lon="9.45842">
        <ele>8.789185</ele>
        <time>2012-09-08T08:40:04Z</time>
      </trkpt>
      <trkpt lat="42.97722" lon="9.45843">
        <ele>10.231201</ele>
        <time>2012-09-08T08:40:12Z</time>
      </trkpt>
      <trkpt lat="42.97743" lon="9.45849">
        <ele>12.153809</ele>
        <time>2012-09-08T08:40:30Z</time>
      </trkpt>
      <trkpt lat="42.97764" lon="9.45857">
        <ele>13.595825</ele>
        <time>2012-09-08T08:40:47Z</time>
      </trkpt>
      <trkpt lat="42.97767" lon="9.45864">
        <ele>14.557007</ele>
        <time>2012-09-08T08:40:52Z</time>
      </trkpt>
      <trkpt lat="42.97767" lon="9.45865">
        <ele>14.557007</ele>
        <time>2012-09-08T08:40:53Z</time>
      </trkpt>
      <trkpt lat="42.97776" lon="9.45882">
        <ele>15.999023</ele>
        <time>2012-09-08T08:41:10Z</time>
      </trkpt>
      <trkpt lat="42.97777" lon="9.45892">
        <ele>19.36377</ele>
        <time>2012-09-08T08:41:21Z</time>
      </trkpt>
      <trkpt lat="42.97782" lon="9.4591">
        <ele>22.247559</ele>
        <time>2012-09-08T08:41:38Z</time>
      </trkpt>
      <trkpt lat="42.97791" lon="9.45923">
        <ele>23.208984</ele>
        <time>2012-09-08T08:41:53Z</time>
      </trkpt>
      <trkpt lat="42.97804" lon="9.45927">
        <ele>26.092896</ele>
        <time>2012-09-08T08:42:07Z</time>
      </trkpt>
      <trkpt lat="42.97807" lon="9.45928">
        <ele>27.054321</ele>
        <time>2012-09-08T08:42:11Z</time>
      </trkpt>
      <trkpt lat="42.97814" lon="9.45929">
        <ele>28.976929</ele>
        <time>2012-09-08T08:42:24Z</time>
      </trkpt>
      <trkpt lat="42.97822" lon="9.45935">
        <ele>31.380127</ele>
        <time>2012-09-08T08:42:40Z</time>
      </trkpt>
      <trkpt lat="42.97836" lon="9.4594">
        <ele>34.26416</ele>
        <time>2012-09-08T08:42:57Z</time>
      </trkpt>
      <trkpt lat="42.97841" lon="9.45943">
        <ele>34.744873</ele>
        <time>2012-09-08T08:43:03Z</time>
      </trkpt>
      <trkpt lat="42.97855" lon="9.45965">
        <ele>36.66748</ele>
        <time>2012-09-08T08:43:23Z</time>
      </trkpt>
      <trkpt lat="42.97866" lon="9.45982">
        <ele>36.66748</ele>
        <time>2012-09-08T08:43:39Z</time>
      </trkpt>
      <trkpt lat="42.97873" lon="9.45998">
        <ele>33.783447</ele>
        <time>2012-09-08T08:43:53Z</time>
      </trkpt>
      <trkpt lat="42.97874" lon="9.4601">
        <ele>31.380127</ele>
        <time>2012-09-08T08:44:08Z</time>
      </trkpt>
      <trkpt lat="42.97875" lon="9.46014">
        <ele>30.418823</ele>
        <time>2012-09-08T08:44:11Z</time>
      </trkpt>
      <trkpt lat="42.97897" lon="9.46004">
        <ele>29.45752</ele>
        <time>2012-09-08T08:44:29Z</time>
      </trkpt>
      <trkpt lat="42.97918" lon="9.45994">
        <ele>29.45752</ele>
        <time>2012-09-08T08:44:45Z</time>
      </trkpt>
      <trkpt lat="42.97936" lon="9.4599">
        <ele>28.496216</ele>
        <time>2012-09-08T08:44:59Z</time>
      </trkpt>
      <trkpt lat="42.97962" lon="9.46002">
        <ele>28.976929</ele>
        <time>2012-09-08T08:45:19Z</time>
      </trkpt>
      <trkpt lat="42.97987" lon="9.46014">
        <ele>30.418823</ele>
        <time>2012-09-08T08:45:39Z</time>
      </trkpt>
      <trkpt lat="42.98004" lon="9.46025">
        <ele>29.93811</ele>
        <time>2012-09-08T08:45:55Z</time>
      </trkpt>
      <trkpt lat="42.98024" lon="9.46024">
        <ele>27.054321</ele>
        <time>2012-09-08T08:46:12Z</time>
      </trkpt>
      <trkpt lat="42.98037" lon="9.46023">
        <ele>26.573608</ele>
        <time>2012-09-08T08:46:23Z</time>
      </trkpt>
      <trkpt lat="42.98063" lon="9.46016">
        <ele>26.092896</ele>
        <time>2012-09-08T08:46:44Z</time>
      </trkpt>
      <trkpt lat="42.98073" lon="9.46024">
        <ele>24.651001</ele>
        <time>2012-09-08T08:46:55Z</time>
      </trkpt>
      <trkpt lat="42.98077" lon="9.46028">
        <ele>23.208984</ele>
        <time>2012-09-08T08:46:58Z</time>
      </trkpt>
      <trkpt lat="42.98091" lon="9.46058">
        <ele>23.689575</ele>
        <time>2012-09-08T08:47:16Z</time>
      </trkpt>
      <trkpt lat="42.98099" lon="9.46073">
        <ele>25.131714</ele>
        <time>2012-09-08T08:47:26Z</time>
      </trkpt>
      <trkpt lat="42.9812" lon="9.46092">
        <ele>24.651001</ele>
        <time>2012-09-08T08:47:47Z</time>
      </trkpt>
      <trkpt lat="42.98126" lon="9.46094">
        <ele>24.170288</ele>
        <time>2012-09-08T08:48:04Z</time>
      </trkpt>
      <trkpt lat="42.98148" lon="9.461">
        <ele>22.728271</ele>
        <time>2012-09-08T08:48:21Z</time>
      </trkpt>
      <trkpt lat="42.98161" lon="9.46104">
        <ele>20.324951</ele>
        <time>2012-09-08T08:48:35Z</time>
      </trkpt>
      <trkpt lat="42.9816" lon="9.46117">
        <ele>16.960449</ele>
        <time>2012-09-08T08:48:48Z</time>
      </trkpt>
      <trkpt lat="42.98163" lon="9.46119">
        <ele>15.999023</ele>
        <time>2012-09-08T08:48:52Z</time>
      </trkpt>
      <trkpt lat="42.98178" lon="9.46118">
        <ele>13.595825</ele>
        <time>2012-09-08T08:49:12Z</time>
      </trkpt>
      <trkpt lat="42.98186" lon="9.4612">
        <ele>11.673218</ele>
        <time>2012-09-08T08:49:27Z</time>
      </trkpt>
      <trkpt lat="42.98192" lon="9.46118">
        <ele>9.75061</ele>
        <time>2012-09-08T08:49:36Z</time>
      </trkpt>
      <trkpt lat="42.98203" lon="9.46111">
        <ele>7.347168</ele>
        <time>2012-09-08T08:49:51Z</time>
      </trkpt>
      <trkpt lat="42.98205" lon="9.46111">
        <ele>6.385864</ele>
        <time>2012-09-08T08:49:56Z</time>
      </trkpt>
      <trkpt lat="42.98218" lon="9.46104">
        <ele>4.943848</ele>
        <time>2012-09-08T08:50:11Z</time>
      </trkpt>
      <trkpt lat="42.98231" lon="9.46099">
        <ele>3.982666</ele>
        <time>2012-09-08T08:50:25Z</time>
      </trkpt>
      <trkpt lat="42.98253" lon="9.46093">
        <ele>3.501953</ele>
        <time>2012-09-08T08:50:43Z</time>
      </trkpt>
      <trkpt lat="42.98281" lon="9.46088">
        <ele>2.060059</ele>
        <time>2012-09-08T08:51:03Z</time>
      </trkpt>
      <trkpt lat="42.98311" lon="9.46082">
        <ele>1.098633</ele>
        <time>2012-09-08T08:51:25Z</time>
      </trkpt>
      <trkpt lat="42.98322" lon="9.46081">
        <ele>1.579346</ele>
        <time>2012-09-08T08:51:33Z</time>
      </trkpt>
      <trkpt lat="42.98343" lon="9.46085">
        <ele>0.618042</ele>
        <time>2012-09-08T08:51:50Z</time>
      </trkpt>
      <trkpt lat="42.98369" lon="9.46095">
        <ele>0.618042</ele>
        <time>2012-09-08T08:52:10Z</time>
      </trkpt>
      <trkpt lat="42.98399" lon="9.46115">
        <ele>0.137451</ele>
        <time>2012-09-08T08:52:33Z</time>
      </trkpt>
      <trkpt lat="42.98425" lon="9.46133">
        <ele>0.618042</ele>
        <time>2012-09-08T08:52:54Z</time>
      </trkpt>
      <trkpt lat="42.9845" lon="9.46156">
        <ele>0.618042</ele>
        <time>2012-09-08T08:53:15Z</time>
      </trkpt>
      <trkpt lat="42.98473" lon="9.46184">
        <ele>0.618042</ele>
        <time>2012-09-08T08:53:37Z</time>
      </trkpt>
      <trkpt lat="42.98495" lon="9.46213">
        <ele>0.618042</ele>
        <time>2012-09-08T08:53:58Z</time>
      </trkpt>
      <trkpt lat="42.9851" lon="9.46245">
        <ele>1.579346</ele>
        <time>2012-09-08T08:54:18Z</time>
      </trkpt>
      <trkpt lat="42.98522" lon="9.46273">
        <ele>1.098633</ele>
        <time>2012-09-08T08:54:37Z</time>
      </trkpt>
      <trkpt lat="42.9854" lon="9.46283">
        <ele>2.060059</ele>
        <time>2012-09-08T08:54:54Z</time>
      </trkpt>
      <trkpt lat="42.98556" lon="9.46295">
        <ele>2.540649</ele>
        <time>2012-09-08T08:55:10Z</time>
      </trkpt>
      <trkpt lat="42.98559" lon="9.46294">
        <ele>2.540649</ele>
        <time>2012-09-08T08:55:18Z</time>
      </trkpt>
      <trkpt lat="42.98551" lon="9.46298">
        <ele>2.540649</ele>
        <time>2012-09-08T08:55:27Z</time>
      </trkpt>
      <trkpt lat="42.98557" lon="9.46309">
        <ele>2.540649</ele>
        <time>2012-09-08T08:55:38Z</time>
      </trkpt>
      <trkpt lat="42.98561" lon="9.46319">
        <ele>2.060059</ele>
        <time>2012-09-08T08:55:45Z</time>
      </trkpt>
      <trkpt lat="42.98565" lon="9.46327">
        <ele>1.098633</ele>
        <time>2012-09-08T08:55:51Z</time>
      </trkpt>
      <trkpt lat="42.98567" lon="9.4633">
        <ele>1.579346</ele>
        <time>2012-09-08T08:55:56Z</time>
      </trkpt>
      <trkpt lat="42.9858" lon="9.4632">
        <ele>2.540649</ele>
        <time>2012-09-08T08:56:11Z</time>
      </trkpt>
      <trkpt lat="42.98581" lon="9.4632">
        <ele>2.540649</ele>
        <time>2012-09-08T08:56:13Z</time>
      </trkpt>
      <trkpt lat="42.98604" lon="9.46315">
        <ele>4.463257</ele>
        <time>2012-09-08T08:56:32Z</time>
      </trkpt>
      <trkpt lat="42.9863" lon="9.46313">
        <ele>4.463257</ele>
        <time>2012-09-08T08:56:52Z</time>
      </trkpt>
      <trkpt lat="42.98631" lon="9.46311">
        <ele>4.463257</ele>
        <time>2012-09-08T08:56:54Z</time>
      </trkpt>
      <trkpt lat="42.9863" lon="9.46305">
        <ele>4.943848</ele>
        <time>2012-09-08T08:56:59Z</time>
      </trkpt>
      <trkpt lat="42.9863" lon="9.46291">
        <ele>5.424561</ele>
        <time>2012-09-08T08:57:11Z</time>
      </trkpt>
      <trkpt lat="42.98636" lon="9.4628">
        <ele>8.789185</ele>
        <time>2012-09-08T08:57:21Z</time>
      </trkpt>
      <trkpt lat="42.98636" lon="9.46266">
        <ele>12.153809</ele>
        <time>2012-09-08T08:57:34Z</time>
      </trkpt>
      <trkpt lat="42.98643" lon="9.46248">
        <ele>14.076416</ele>
        <time>2012-09-08T08:57:51Z</time>
      </trkpt>
      <trkpt lat="42.98648" lon="9.46236">
        <ele>15.03772</ele>
        <time>2012-09-08T08:58:07Z</time>
      </trkpt>
      <trkpt lat="42.98659" lon="9.46219">
        <ele>17.441162</ele>
        <time>2012-09-08T08:58:25Z</time>
      </trkpt>
      <trkpt lat="42.9867" lon="9.46202">
        <ele>20.805664</ele>
        <time>2012-09-08T08:58:42Z</time>
      </trkpt>
      <trkpt lat="42.98672" lon="9.46187">
        <ele>23.689575</ele>
        <time>2012-09-08T08:58:59Z</time>
      </trkpt>
      <trkpt lat="42.98675" lon="9.46172">
        <ele>26.573608</ele>
        <time>2012-09-08T08:59:15Z</time>
      </trkpt>
      <trkpt lat="42.98684" lon="9.46159">
        <ele>27.054321</ele>
        <time>2012-09-08T08:59:32Z</time>
      </trkpt>
      <trkpt lat="42.98684" lon="9.46158">
        <ele>27.534912</ele>
        <time>2012-09-08T08:59:33Z</time>
      </trkpt>
      <trkpt lat="42.98685" lon="9.46142">
        <ele>29.45752</ele>
        <time>2012-09-08T08:59:45Z</time>
      </trkpt>
      <trkpt lat="42.98697" lon="9.46114">
        <ele>31.380127</ele>
        <time>2012-09-08T09:00:06Z</time>
      </trkpt>
      <trkpt lat="42.98704" lon="9.46099">
        <ele>34.26416</ele>
        <time>2012-09-08T09:00:21Z</time>
      </trkpt>
      <trkpt lat="42.98715" lon="9.46078">
        <ele>37.628662</ele>
        <time>2012-09-08T09:00:41Z</time>
      </trkpt>
      <trkpt lat="42.98717" lon="9.4608">
        <ele>38.109375</ele>
        <time>2012-09-08T09:00:45Z</time>
      </trkpt>
      <trkpt lat="42.98719" lon="9.46082">
        <ele>38.590088</ele>
        <time>2012-09-08T09:00:47Z</time>
      </trkpt>
      <trkpt lat="42.98731" lon="9.46074">
        <ele>41.954712</ele>
        <time>2012-09-08T09:01:03Z</time>
      </trkpt>
      <trkpt lat="42.98735" lon="9.46068">
        <ele>43.396606</ele>
        <time>2012-09-08T09:01:18Z</time>
      </trkpt>
      <trkpt lat="42.98732" lon="9.46066">
        <ele>42.916016</ele>
        <time>2012-09-08T09:01:26Z</time>
      </trkpt>
      <trkpt lat="42.98734" lon="9.46045">
        <ele>40.993408</ele>
        <time>2012-09-08T09:01:39Z</time>
      </trkpt>
      <trkpt lat="42.98732" lon="9.4604">
        <ele>41.473999</ele>
        <time>2012-09-08T09:01:42Z</time>
      </trkpt>
      <trkpt lat="42.98734" lon="9.46022">
        <ele>41.954712</ele>
        <time>2012-09-08T09:01:53Z</time>
      </trkpt>
      <trkpt lat="42.98736" lon="9.46015">
        <ele>40.993408</ele>
        <time>2012-09-08T09:01:58Z</time>
      </trkpt>
      <trkpt lat="42.98738" lon="9.45987">
        <ele>39.070679</ele>
        <time>2012-09-08T09:02:14Z</time>
      </trkpt>
      <trkpt lat="42.98742" lon="9.4597">
        <ele>35.706055</ele>
        <time>2012-09-08T09:02:30Z</time>
      </trkpt>
      <trkpt lat="42.98744" lon="9.4595">
        <ele>34.26416</ele>
        <time>2012-09-08T09:02:45Z</time>
      </trkpt>
      <trkpt lat="42.98745" lon="9.45925">
        <ele>31.860718</ele>
        <time>2012-09-08T09:03:02Z</time>
      </trkpt>
      <trkpt lat="42.98745" lon="9.45918">
        <ele>30.899536</ele>
        <time>2012-09-08T09:03:08Z</time>
      </trkpt>
      <trkpt lat="42.98743" lon="9.45902">
        <ele>29.93811</ele>
        <time>2012-09-08T09:03:22Z</time>
      </trkpt>
      <trkpt lat="42.98744" lon="9.45886">
        <ele>27.534912</ele>
        <time>2012-09-08T09:03:38Z</time>
      </trkpt>
      <trkpt lat="42.98741" lon="9.45867">
        <ele>25.131714</ele>
        <time>2012-09-08T09:03:54Z</time>
      </trkpt>
      <trkpt lat="42.9874" lon="9.45863">
        <ele>25.131714</ele>
        <time>2012-09-08T09:03:57Z</time>
      </trkpt>
      <trkpt lat="42.9874" lon="9.4584">
        <ele>22.247559</ele>
        <time>2012-09-08T09:04:15Z</time>
      </trkpt>
      <trkpt lat="42.98741" lon="9.45837">
        <ele>20.324951</ele>
        <time>2012-09-08T09:04:19Z</time>
      </trkpt>
      <trkpt lat="42.98744" lon="9.45813">
        <ele>18.402344</ele>
        <time>2012-09-08T09:04:39Z</time>
      </trkpt>
      <trkpt lat="42.98747" lon="9.45797">
        <ele>17.441162</ele>
        <time>2012-09-08T09:04:55Z</time>
      </trkpt>
      <trkpt lat="42.98746" lon="9.45775">
        <ele>16.479736</ele>
        <time>2012-09-08T09:05:11Z</time>
      </trkpt>
      <trkpt lat="42.98747" lon="9.45761">
        <ele>13.595825</ele>
        <time>2012-09-08T09:05:25Z</time>
      </trkpt>
      <trkpt lat="42.9874" lon="9.45738">
        <ele>10.711792</ele>
        <time>2012-09-08T09:05:43Z</time>
      </trkpt>
      <trkpt lat="42.98737" lon="9.45715">
        <ele>10.231201</ele>
        <time>2012-09-08T09:05:59Z</time>
      </trkpt>
      <trkpt lat="42.98736" lon="9.45687">
        <ele>8.789185</ele>
        <time>2012-09-08T09:06:15Z</time>
      </trkpt>
      <trkpt lat="42.9873" lon="9.45659">
        <ele>9.75061</ele>
        <time>2012-09-08T09:06:32Z</time>
      </trkpt>
      <trkpt lat="42.98732" lon="9.45626">
        <ele>10.711792</ele>
        <time>2012-09-08T09:06:50Z</time>
      </trkpt>
      <trkpt lat="42.9873" lon="9.45587">
        <ele>13.115112</ele>
        <time>2012-09-08T09:07:13Z</time>
      </trkpt>
      <trkpt lat="42.98723" lon="9.4556">
        <ele>13.115112</ele>
        <time>2012-09-08T09:07:31Z</time>
      </trkpt>
      <trkpt lat="42.98723" lon="9.45543">
        <ele>12.153809</ele>
        <time>2012-09-08T09:07:44Z</time>
      </trkpt>
      <trkpt lat="42.98725" lon="9.45535">
        <ele>11.192505</ele>
        <time>2012-09-08T09:07:50Z</time>
      </trkpt>
      <trkpt lat="42.98725" lon="9.45522">
        <ele>9.269897</ele>
        <time>2012-09-08T09:07:58Z</time>
      </trkpt>
      <trkpt lat="42.98729" lon="9.45496">
        <ele>6.866455</ele>
        <time>2012-09-08T09:08:15Z</time>
      </trkpt>
      <trkpt lat="42.98735" lon="9.45476">
        <ele>6.866455</ele>
        <time>2012-09-08T09:08:34Z</time>
      </trkpt>
      <trkpt lat="42.98734" lon="9.45473">
        <ele>5.424561</ele>
        <time>2012-09-08T09:08:49Z</time>
      </trkpt>
      <trkpt lat="42.98734" lon="9.45466">
        <ele>3.501953</ele>
        <time>2012-09-08T09:08:53Z</time>
      </trkpt>
      <trkpt lat="42.98735" lon="9.4546">
        <ele>3.02124</ele>
        <time>2012-09-08T09:08:56Z</time>
      </trkpt>
      <trkpt lat="42.98752" lon="9.45445">
        <ele>2.060059</ele>
        <time>2012-09-08T09:09:13Z</time>
      </trkpt>
      <trkpt lat="42.98754" lon="9.45442">
        <ele>1.579346</ele>
        <time>2012-09-08T09:09:45Z</time>
      </trkpt>
      <trkpt lat="42.98766" lon="9.45411">
        <ele>1.579346</ele>
        <time>2012-09-08T09:10:05Z</time>
      </trkpt>
      <trkpt lat="42.98777" lon="9.45375">
        <ele>1.579346</ele>
        <time>2012-09-08T09:10:25Z</time>
      </trkpt>
      <trkpt lat="42.98791" lon="9.45338">
        <ele>2.540649</ele>
        <time>2012-09-08T09:10:46Z</time>
      </trkpt>
      <trkpt lat="42.98811" lon="9.45324">
        <ele>3.501953</ele>
        <time>2012-09-08T09:11:03Z</time>
      </trkpt>
      <trkpt lat="42.98838" lon="9.45309">
        <ele>4.463257</ele>
        <time>2012-09-08T09:11:25Z</time>
      </trkpt>
      <trkpt lat="42.98839" lon="9.45308">
        <ele>5.424561</ele>
        <time>2012-09-08T09:11:26Z</time>
      </trkpt>
      <trkpt lat="42.98847" lon="9.45298">
        <ele>4.943848</ele>
        <time>2012-09-08T09:11:34Z</time>
      </trkpt>
      <trkpt lat="42.98865" lon="9.45271">
        <ele>3.982666</ele>
        <time>2012-09-08T09:11:54Z</time>
      </trkpt>
      <trkpt lat="42.98868" lon="9.45257">
        <ele>4.463257</ele>
        <time>2012-09-08T09:12:08Z</time>
      </trkpt>
      <trkpt lat="42.98869" lon="9.45254">
        <ele>4.943848</ele>
        <time>2012-09-08T09:12:17Z</time>
      </trkpt>
      <trkpt lat="42.98883" lon="9.45226">
        <ele>5.424561</ele>
        <time>2012-09-08T09:12:36Z</time>
      </trkpt>
      <trkpt lat="42.98898" lon="9.45202">
        <ele>4.943848</ele>
        <time>2012-09-08T09:12:54Z</time>
      </trkpt>
      <trkpt lat="42.98906" lon="9.45185">
        <ele>3.982666</ele>
        <time>2012-09-08T09:13:11Z</time>
      </trkpt>
      <trkpt lat="42.98928" lon="9.45165">
        <ele>3.982666</ele>
        <time>2012-09-08T09:13:30Z</time>
      </trkpt>
      <trkpt lat="42.98954" lon="9.45131">
        <ele>4.463257</ele>
        <time>2012-09-08T09:13:55Z</time>
      </trkpt>
      <trkpt lat="42.98975" lon="9.45106">
        <ele>4.463257</ele>
        <time>2012-09-08T09:14:14Z</time>
      </trkpt>
      <trkpt lat="42.98997" lon="9.451">
        <ele>3.02124</ele>
        <time>2012-09-08T09:14:30Z</time>
      </trkpt>
      <trkpt lat="42.99023" lon="9.451">
        <ele>4.463257</ele>
        <time>2012-09-08T09:14:48Z</time>
      </trkpt>
      <trkpt lat="42.99053" lon="9.45095">
        <ele>3.982666</ele>
        <time>2012-09-08T09:15:12Z</time>
      </trkpt>
      <trkpt lat="42.9906" lon="9.45093">
        <ele>3.501953</ele>
        <time>2012-09-08T09:15:29Z</time>
      </trkpt>
      <trkpt lat="42.99069" lon="9.45092">
        <ele>1.579346</ele>
        <time>2012-09-08T09:15:36Z</time>
      </trkpt>
      <trkpt lat="42.99093" lon="9.45089">
        <ele>2.060059</ele>
        <time>2012-09-08T09:15:55Z</time>
      </trkpt>
      <trkpt lat="42.99095" lon="9.45088">
        <ele>2.060059</ele>
        <time>2012-09-08T09:15:57Z</time>
      </trkpt>
      <trkpt lat="42.99099" lon="9.45092">
        <ele>2.060059</ele>
        <time>2012-09-08T09:16:01Z</time>
      </trkpt>
      <trkpt lat="42.99113" lon="9.4511">
        <ele>2.060059</ele>
        <time>2012-09-08T09:16:19Z</time>
      </trkpt>
      <trkpt lat="42.99113" lon="9.45109">
        <ele>2.060059</ele>
        <time>2012-09-08T09:16:25Z</time>
      </trkpt>
      <trkpt lat="42.99104" lon="9.45088">
        <ele>2.060059</ele>
        <time>2012-09-08T09:16:36Z</time>
      </trkpt>
      <trkpt lat="42.99109" lon="9.45049">
        <ele>3.982666</ele>
        <time>2012-09-08T09:16:54Z</time>
      </trkpt>
      <trkpt lat="42.99118" lon="9.45007">
        <ele>5.905273</ele>
        <time>2012-09-08T09:17:15Z</time>
      </trkpt>
      <trkpt lat="42.99127" lon="9.4496">
        <ele>6.866455</ele>
        <time>2012-09-08T09:17:38Z</time>
      </trkpt>
      <trkpt lat="42.99119" lon="9.44912">
        <ele>7.827881</ele>
        <time>2012-09-08T09:18:01Z</time>
      </trkpt>
      <trkpt lat="42.99117" lon="9.44905">
        <ele>7.827881</ele>
        <time>2012-09-08T09:18:05Z</time>
      </trkpt>
      <trkpt lat="42.99101" lon="9.44867">
        <ele>11.192505</ele>
        <time>2012-09-08T09:18:26Z</time>
      </trkpt>
      <trkpt lat="42.99103" lon="9.4483">
        <ele>9.269897</ele>
        <time>2012-09-08T09:18:46Z</time>
      </trkpt>
      <trkpt lat="42.99107" lon="9.44808">
        <ele>5.905273</ele>
        <time>2012-09-08T09:19:02Z</time>
      </trkpt>
      <trkpt lat="42.99111" lon="9.44794">
        <ele>3.02124</ele>
        <time>2012-09-08T09:19:12Z</time>
      </trkpt>
      <trkpt lat="42.99137" lon="9.44776">
        <ele>1.579346</ele>
        <time>2012-09-08T09:19:33Z</time>
      </trkpt>
      <trkpt lat="42.9916" lon="9.44771">
        <ele>1.098633</ele>
        <time>2012-09-08T09:19:52Z</time>
      </trkpt>
      <trkpt lat="42.99188" lon="9.44747">
        <ele>0.618042</ele>
        <time>2012-09-08T09:20:16Z</time>
      </trkpt>
      <trkpt lat="42.99207" lon="9.44732">
        <ele>2.540649</ele>
        <time>2012-09-08T09:20:36Z</time>
      </trkpt>
      <trkpt lat="42.9922" lon="9.44725">
        <ele>3.02124</ele>
        <time>2012-09-08T09:20:51Z</time>
      </trkpt>
      <trkpt lat="42.99239" lon="9.44704">
        <ele>5.905273</ele>
        <time>2012-09-08T09:21:10Z</time>
      </trkpt>
      <trkpt lat="42.99258" lon="9.44682">
        <ele>9.269897</ele>
        <time>2012-09-08T09:21:30Z</time>
      </trkpt>
      <trkpt lat="42.9927" lon="9.44665">
        <ele>12.153809</ele>
        <time>2012-09-08T09:21:45Z</time>
      </trkpt>
      <trkpt lat="42.99276" lon="9.44637">
        <ele>14.076416</ele>
        <time>2012-09-08T09:22:04Z</time>
      </trkpt>
      <trkpt lat="42.99274" lon="9.446">
        <ele>15.518433</ele>
        <time>2012-09-08T09:22:25Z</time>
      </trkpt>
      <trkpt lat="42.9928" lon="9.44554">
        <ele>16.479736</ele>
        <time>2012-09-08T09:22:49Z</time>
      </trkpt>
      <trkpt lat="42.99283" lon="9.44514">
        <ele>16.479736</ele>
        <time>2012-09-08T09:23:10Z</time>
      </trkpt>
      <trkpt lat="42.99284" lon="9.44479">
        <ele>15.999023</ele>
        <time>2012-09-08T09:23:28Z</time>
      </trkpt>
      <trkpt lat="42.99297" lon="9.44442">
        <ele>14.557007</ele>
        <time>2012-09-08T09:23:50Z</time>
      </trkpt>
      <trkpt lat="42.9931" lon="9.4441">
        <ele>13.115112</ele>
        <time>2012-09-08T09:24:11Z</time>
      </trkpt>
      <trkpt lat="42.99312" lon="9.44391">
        <ele>9.75061</ele>
        <time>2012-09-08T09:24:26Z</time>
      </trkpt>
      <trkpt lat="42.99312" lon="9.44391">
        <ele>9.269897</ele>
        <time>2012-09-08T09:24:27Z</time>
      </trkpt>
      <trkpt lat="42.99314" lon="9.44379">
        <ele>6.385864</ele>
        <time>2012-09-08T09:24:39Z</time>
      </trkpt>
      <trkpt lat="42.99316" lon="9.44372">
        <ele>5.905273</ele>
        <time>2012-09-08T09:24:44Z</time>
      </trkpt>
      <trkpt lat="42.99328" lon="9.44349">
        <ele>4.943848</ele>
        <time>2012-09-08T09:25:01Z</time>
      </trkpt>
      <trkpt lat="42.99334" lon="9.44349">
        <ele>4.943848</ele>
        <time>2012-09-08T09:25:06Z</time>
      </trkpt>
      <trkpt lat="42.99339" lon="9.44346">
        <ele>5.424561</ele>
        <time>2012-09-08T09:25:10Z</time>
      </trkpt>
      <trkpt lat="42.99355" lon="9.44326">
        <ele>5.424561</ele>
        <time>2012-09-08T09:25:28Z</time>
      </trkpt>
      <trkpt lat="42.99362" lon="9.44323">
        <ele>3.982666</ele>
        <time>2012-09-08T09:25:36Z</time>
      </trkpt>
      <trkpt lat="42.99365" lon="9.4432">
        <ele>3.982666</ele>
        <time>2012-09-08T09:25:40Z</time>
      </trkpt>
      <trkpt lat="42.99379" lon="9.44313">
        <ele>1.579346</ele>
        <time>2012-09-08T09:25:52Z</time>
      </trkpt>
      <trkpt lat="42.99393" lon="9.44312">
        <ele>0.618042</ele>
        <time>2012-09-08T09:26:03Z</time>
      </trkpt>
      <trkpt lat="42.99402" lon="9.44308">
        <ele>1.098633</ele>
        <time>2012-09-08T09:26:10Z</time>
      </trkpt>
      <trkpt lat="42.99437" lon="9.44308">
        <ele>1.098633</ele>
        <time>2012-09-08T09:26:34Z</time>
      </trkpt>
      <trkpt lat="42.99461" lon="9.44301">
        <ele>1.579346</ele>
        <time>2012-09-08T09:26:52Z</time>
      </trkpt>
      <trkpt lat="42.99492" lon="9.44302">
        <ele>1.098633</ele>
        <time>2012-09-08T09:27:14Z</time>
      </trkpt>
      <trkpt lat="42.99518" lon="9.44297">
        <ele>2.060059</ele>
        <time>2012-09-08T09:27:33Z</time>
      </trkpt>
      <trkpt lat="42.99526" lon="9.44294">
        <ele>2.540649</ele>
        <time>2012-09-08T09:27:39Z</time>
      </trkpt>
      <trkpt lat="42.99527" lon="9.443">
        <ele>3.501953</ele>
        <time>2012-09-08T09:27:43Z</time>
      </trkpt>
      <trkpt lat="42.99526" lon="9.44316">
        <ele>3.501953</ele>
        <time>2012-09-08T09:27:55Z</time>
      </trkpt>
      <trkpt lat="42.99544" lon="9.44335">
        <ele>3.982666</ele>
        <time>2012-09-08T09:28:12Z</time>
      </trkpt>
      <trkpt lat="42.99545" lon="9.44338">
        <ele>3.982666</ele>
        <time>2012-09-08T09:28:14Z</time>
      </trkpt>
      <trkpt lat="42.99561" lon="9.44362">
        <ele>5.905273</ele>
        <time>2012-09-08T09:28:32Z</time>
      </trkpt>
      <trkpt lat="42.99576" lon="9.44381">
        <ele>6.385864</ele>
        <time>2012-09-08T09:28:49Z</time>
      </trkpt>
      <trkpt lat="42.99587" lon="9.44407">
        <ele>4.943848</ele>
        <time>2012-09-08T09:29:05Z</time>
      </trkpt>
      <trkpt lat="42.99609" lon="9.4442">
        <ele>6.866455</ele>
        <time>2012-09-08T09:29:24Z</time>
      </trkpt>
      <trkpt lat="42.99618" lon="9.44425">
        <ele>8.789185</ele>
        <time>2012-09-08T09:29:34Z</time>
      </trkpt>
      <trkpt lat="42.99628" lon="9.44429">
        <ele>9.269897</ele>
        <time>2012-09-08T09:29:48Z</time>
      </trkpt>
      <trkpt lat="42.99633" lon="9.44431">
        <ele>8.789185</ele>
        <time>2012-09-08T09:30:01Z</time>
      </trkpt>
      <trkpt lat="42.99637" lon="9.44432">
        <ele>9.75061</ele>
        <time>2012-09-08T09:30:16Z</time>
      </trkpt>
      <trkpt lat="42.99655" lon="9.44436">
        <ele>10.711792</ele>
        <time>2012-09-08T09:30:30Z</time>
      </trkpt>
      <trkpt lat="42.99672" lon="9.44442">
        <ele>9.75061</ele>
        <time>2012-09-08T09:30:42Z</time>
      </trkpt>
      <trkpt lat="42.99696" lon="9.44444">
        <ele>10.711792</ele>
        <time>2012-09-08T09:31:00Z</time>
      </trkpt>
      <trkpt lat="42.99701" lon="9.44433">
        <ele>12.634399</ele>
        <time>2012-09-08T09:31:15Z</time>
      </trkpt>
      <trkpt lat="42.997" lon="9.44427">
        <ele>13.595825</ele>
        <time>2012-09-08T09:31:22Z</time>
      </trkpt>
      <trkpt lat="42.997" lon="9.44416">
        <ele>15.518433</ele>
        <time>2012-09-08T09:31:30Z</time>
      </trkpt>
      <trkpt lat="42.99698" lon="9.44408">
        <ele>15.999023</ele>
        <time>2012-09-08T09:31:36Z</time>
      </trkpt>
      <trkpt lat="42.99702" lon="9.44376">
        <ele>18.402344</ele>
        <time>2012-09-08T09:31:55Z</time>
      </trkpt>
      <trkpt lat="42.99718" lon="9.44346">
        <ele>17.921753</ele>
        <time>2012-09-08T09:32:17Z</time>
      </trkpt>
      <trkpt lat="42.99722" lon="9.4434">
        <ele>17.441162</ele>
        <time>2012-09-08T09:32:22Z</time>
      </trkpt>
      <trkpt lat="42.99726" lon="9.44338">
        <ele>15.999023</ele>
        <time>2012-09-08T09:32:26Z</time>
      </trkpt>
      <trkpt lat="42.99727" lon="9.44335">
        <ele>15.999023</ele>
        <time>2012-09-08T09:32:28Z</time>
      </trkpt>
      <trkpt lat="42.9974" lon="9.44302">
        <ele>14.557007</ele>
        <time>2012-09-08T09:32:50Z</time>
      </trkpt>
      <trkpt lat="42.99741" lon="9.44303">
        <ele>15.518433</ele>
        <time>2012-09-08T09:33:06Z</time>
      </trkpt>
      <trkpt lat="42.99739" lon="9.44298">
        <ele>15.03772</ele>
        <time>2012-09-08T09:33:10Z</time>
      </trkpt>
      <trkpt lat="42.99752" lon="9.4428">
        <ele>11.673218</ele>
        <time>2012-09-08T09:33:26Z</time>
      </trkpt>
      <trkpt lat="42.99753" lon="9.44279">
        <ele>11.192505</ele>
        <time>2012-09-08T09:33:27Z</time>
      </trkpt>
      <trkpt lat="42.99772" lon="9.44271">
        <ele>7.827881</ele>
        <time>2012-09-08T09:33:41Z</time>
      </trkpt>
      <trkpt lat="42.99777" lon="9.44271">
        <ele>7.347168</ele>
        <time>2012-09-08T09:33:44Z</time>
      </trkpt>
      <trkpt lat="42.99783" lon="9.44268">
        <ele>7.827881</ele>
        <time>2012-09-08T09:33:48Z</time>
      </trkpt>
      <trkpt lat="42.9982" lon="9.4426">
        <ele>7.347168</ele>
        <time>2012-09-08T09:34:11Z</time>
      </trkpt>
      <trkpt lat="42.99828" lon="9.44267">
        <ele>7.827881</ele>
        <time>2012-09-08T09:34:17Z</time>
      </trkpt>
      <trkpt lat="42.99836" lon="9.4427">
        <ele>7.827881</ele>
        <time>2012-09-08T09:34:23Z</time>
      </trkpt>
      <trkpt lat="42.99865" lon="9.44266">
        <ele>6.866455</ele>
        <time>2012-09-08T09:34:45Z</time>
      </trkpt>
      <trkpt lat="42.99871" lon="9.44267">
        <ele>7.827881</ele>
        <time>2012-09-08T09:34:50Z</time>
      </trkpt>
      <trkpt lat="42.99894" lon="9.44257">
        <ele>9.269897</ele>
        <time>2012-09-08T09:35:09Z</time>
      </trkpt>
      <trkpt lat="42.99899" lon="9.44253">
        <ele>8.308594</ele>
        <time>2012-09-08T09:35:14Z</time>
      </trkpt>
      <trkpt lat="42.99902" lon="9.44252">
        <ele>7.827881</ele>
        <time>2012-09-08T09:35:17Z</time>
      </trkpt>
      <trkpt lat="42.99906" lon="9.44249">
        <ele>7.347168</ele>
        <time>2012-09-08T09:35:21Z</time>
      </trkpt>
      <trkpt lat="42.99918" lon="9.44225">
        <ele>5.905273</ele>
        <time>2012-09-08T09:35:39Z</time>
      </trkpt>
      <trkpt lat="42.9994" lon="9.44211">
        <ele>7.347168</ele>
        <time>2012-09-08T09:35:59Z</time>
      </trkpt>
      <trkpt lat="42.9995" lon="9.4421">
        <ele>7.827881</ele>
        <time>2012-09-08T09:36:09Z</time>
      </trkpt>
      <trkpt lat="42.99957" lon="9.44206">
        <ele>7.347168</ele>
        <time>2012-09-08T09:36:15Z</time>
      </trkpt>
      <trkpt lat="42.99979" lon="9.4419">
        <ele>7.827881</ele>
        <time>2012-09-08T09:36:33Z</time>
      </trkpt>
      <trkpt lat="42.9999" lon="9.44166">
        <ele>8.308594</ele>
        <time>2012-09-08T09:36:49Z</time>
      </trkpt>
      <trkpt lat="42.99991" lon="9.44163">
        <ele>8.789185</ele>
        <time>2012-09-08T09:36:51Z</time>
      </trkpt>
      <trkpt lat="42.99994" lon="9.44159">
        <ele>8.789185</ele>
        <time>2012-09-08T09:36:55Z</time>
      </trkpt>
      <trkpt lat="43.0001" lon="9.44143">
        <ele>10.711792</ele>
        <time>2012-09-08T09:37:12Z</time>
      </trkpt>
      <trkpt lat="43.00017" lon="9.44127">
        <ele>13.115112</ele>
        <time>2012-09-08T09:37:27Z</time>
      </trkpt>
      <trkpt lat="43.0003" lon="9.44108">
        <ele>14.076416</ele>
        <time>2012-09-08T09:37:44Z</time>
      </trkpt>
      <trkpt lat="43.00032" lon="9.44106">
        <ele>15.03772</ele>
        <time>2012-09-08T09:37:46Z</time>
      </trkpt>
      <trkpt lat="43.00039" lon="9.44096">
        <ele>15.518433</ele>
        <time>2012-09-08T09:37:56Z</time>
      </trkpt>
      <trkpt lat="43.00047" lon="9.44082">
        <ele>13.595825</ele>
        <time>2012-09-08T09:38:08Z</time>
      </trkpt>
      <trkpt lat="43.0005" lon="9.44075">
        <ele>13.595825</ele>
        <time>2012-09-08T09:38:23Z</time>
      </trkpt>
      <trkpt lat="43.00049" lon="9.44039">
        <ele>11.192505</ele>
        <time>2012-09-08T09:38:44Z</time>
      </trkpt>
      <trkpt lat="43.00042" lon="9.4401">
        <ele>10.231201</ele>
        <time>2012-09-08T09:39:04Z</time>
      </trkpt>
      <trkpt lat="43.00042" lon="9.44004">
        <ele>10.711792</ele>
        <time>2012-09-08T09:39:08Z</time>
      </trkpt>
      <trkpt lat="43.00034" lon="9.43996">
        <ele>10.231201</ele>
        <time>2012-09-08T09:39:17Z</time>
      </trkpt>
      <trkpt lat="43.00022" lon="9.43963">
        <ele>9.269897</ele>
        <time>2012-09-08T09:39:38Z</time>
      </trkpt>
      <trkpt lat="43.00022" lon="9.43928">
        <ele>9.75061</ele>
        <time>2012-09-08T09:39:58Z</time>
      </trkpt>
      <trkpt lat="43.00029" lon="9.43905">
        <ele>10.711792</ele>
        <time>2012-09-08T09:40:14Z</time>
      </trkpt>
      <trkpt lat="43.0003" lon="9.43902">
        <ele>10.711792</ele>
        <time>2012-09-08T09:40:16Z</time>
      </trkpt>
      <trkpt lat="43.00028" lon="9.43892">
        <ele>10.711792</ele>
        <time>2012-09-08T09:40:23Z</time>
      </trkpt>
      <trkpt lat="43.00023" lon="9.43879">
        <ele>10.711792</ele>
        <time>2012-09-08T09:40:33Z</time>
      </trkpt>
      <trkpt lat="43.00023" lon="9.43873">
        <ele>9.269897</ele>
        <time>2012-09-08T09:40:37Z</time>
      </trkpt>
      <trkpt lat="43.00018" lon="9.43837">
        <ele>9.269897</ele>
        <time>2012-09-08T09:40:57Z</time>
      </trkpt>
      <trkpt lat="43.00016" lon="9.43828">
        <ele>10.231201</ele>
        <time>2012-09-08T09:41:02Z</time>
      </trkpt>
      <trkpt lat="43.00016" lon="9.43816">
        <ele>10.711792</ele>
        <time>2012-09-08T09:41:08Z</time>
      </trkpt>
      <trkpt lat="43.0002" lon="9.4378">
        <ele>12.153809</ele>
        <time>2012-09-08T09:41:28Z</time>
      </trkpt>
      <trkpt lat="43.00025" lon="9.43754">
        <ele>14.557007</ele>
        <time>2012-09-08T09:41:47Z</time>
      </trkpt>
      <trkpt lat="43.00025" lon="9.43753">
        <ele>15.518433</ele>
        <time>2012-09-08T09:41:48Z</time>
      </trkpt>
      <trkpt lat="43.00027" lon="9.43732">
        <ele>18.402344</ele>
        <time>2012-09-08T09:42:04Z</time>
      </trkpt>
      <trkpt lat="43.00028" lon="9.43727">
        <ele>18.402344</ele>
        <time>2012-09-08T09:42:07Z</time>
      </trkpt>
      <trkpt lat="43.00039" lon="9.43697">
        <ele>18.883057</ele>
        <time>2012-09-08T09:42:27Z</time>
      </trkpt>
      <trkpt lat="43.00046" lon="9.43682">
        <ele>17.921753</ele>
        <time>2012-09-08T09:42:47Z</time>
      </trkpt>
      <trkpt lat="43.00045" lon="9.43672">
        <ele>15.999023</ele>
        <time>2012-09-08T09:43:00Z</time>
      </trkpt>
      <trkpt lat="43.00046" lon="9.43664">
        <ele>13.595825</ele>
        <time>2012-09-08T09:43:16Z</time>
      </trkpt>
      <trkpt lat="43.00043" lon="9.43654">
        <ele>11.673218</ele>
        <time>2012-09-08T09:43:33Z</time>
      </trkpt>
      <trkpt lat="43.00044" lon="9.43645">
        <ele>8.789185</ele>
        <time>2012-09-08T09:43:45Z</time>
      </trkpt>
      <trkpt lat="43.0004" lon="9.4363">
        <ele>7.347168</ele>
        <time>2012-09-08T09:44:01Z</time>
      </trkpt>
      <trkpt lat="43.00032" lon="9.43606">
        <ele>6.385864</ele>
        <time>2012-09-08T09:44:19Z</time>
      </trkpt>
      <trkpt lat="43.00028" lon="9.43599">
        <ele>4.463257</ele>
        <time>2012-09-08T09:44:32Z</time>
      </trkpt>
      <trkpt lat="43.00028" lon="9.43597">
        <ele>3.982666</ele>
        <time>2012-09-08T09:44:35Z</time>
      </trkpt>
      <trkpt lat="43.0004" lon="9.43587">
        <ele>5.424561</ele>
        <time>2012-09-08T09:44:48Z</time>
      </trkpt>
      <trkpt lat="43.00051" lon="9.43584">
        <ele>7.827881</ele>
        <time>2012-09-08T09:45:03Z</time>
      </trkpt>
      <trkpt lat="43.00057" lon="9.43582">
        <ele>11.192505</ele>
        <time>2012-09-08T09:45:14Z</time>
      </trkpt>
      <trkpt lat="43.00058" lon="9.43582">
        <ele>11.192505</ele>
        <time>2012-09-08T09:45:16Z</time>
      </trkpt>
      <trkpt lat="43.00074" lon="9.43585">
        <ele>13.115112</ele>
        <time>2012-09-08T09:45:32Z</time>
      </trkpt>
      <trkpt lat="43.00082" lon="9.43586">
        <ele>12.634399</ele>
        <time>2012-09-08T09:45:41Z</time>
      </trkpt>
      <trkpt lat="43.00093" lon="9.43574">
        <ele>14.076416</ele>
        <time>2012-09-08T09:45:56Z</time>
      </trkpt>
      <trkpt lat="43.001" lon="9.43548">
        <ele>12.634399</ele>
        <time>2012-09-08T09:46:17Z</time>
      </trkpt>
      <trkpt lat="43.00103" lon="9.43542">
        <ele>11.673218</ele>
        <time>2012-09-08T09:46:36Z</time>
      </trkpt>
      <trkpt lat="43.00103" lon="9.4354">
        <ele>11.192505</ele>
        <time>2012-09-08T09:46:44Z</time>
      </trkpt>
      <trkpt lat="43.00106" lon="9.43521">
        <ele>9.75061</ele>
        <time>2012-09-08T09:46:56Z</time>
      </trkpt>
      <trkpt lat="43.00107" lon="9.43516">
        <ele>8.308594</ele>
        <time>2012-09-08T09:47:00Z</time>
      </trkpt>
      <trkpt lat="43.00119" lon="9.43489">
        <ele>9.269897</ele>
        <time>2012-09-08T09:47:19Z</time>
      </trkpt>
      <trkpt lat="43.00125" lon="9.43486">
        <ele>10.711792</ele>
        <time>2012-09-08T09:47:27Z</time>
      </trkpt>
      <trkpt lat="43.00131" lon="9.43477">
        <ele>12.634399</ele>
        <time>2012-09-08T09:47:42Z</time>
      </trkpt>
      <trkpt lat="43.00139" lon="9.43474">
        <ele>14.557007</ele>
        <time>2012-09-08T09:47:55Z</time>
      </trkpt>
      <trkpt lat="43.00143" lon="9.43463">
        <ele>17.921753</ele>
        <time>2012-09-08T09:48:08Z</time>
      </trkpt>
      <trkpt lat="43.00145" lon="9.43449">
        <ele>19.36377</ele>
        <time>2012-09-08T09:48:23Z</time>
      </trkpt>
      <trkpt lat="43.00136" lon="9.43441">
        <ele>19.84436</ele>
        <time>2012-09-08T09:48:33Z</time>
      </trkpt>
      <trkpt lat="43.00132" lon="9.43415">
        <ele>22.728271</ele>
        <time>2012-09-08T09:48:52Z</time>
      </trkpt>
      <trkpt lat="43.00137" lon="9.43388">
        <ele>24.651001</ele>
        <time>2012-09-08T09:49:11Z</time>
      </trkpt>
      <trkpt lat="43.00141" lon="9.43361">
        <ele>27.054321</ele>
        <time>2012-09-08T09:49:29Z</time>
      </trkpt>
      <trkpt lat="43.00147" lon="9.43341">
        <ele>28.496216</ele>
        <time>2012-09-08T09:49:42Z</time>
      </trkpt>
      <trkpt lat="43.00144" lon="9.43332">
        <ele>28.015503</ele>
        <time>2012-09-08T09:49:48Z</time>
      </trkpt>
      <trkpt lat="43.00142" lon="9.43317">
        <ele>29.45752</ele>
        <time>2012-09-08T09:49:57Z</time>
      </trkpt>
      <trkpt lat="43.0014" lon="9.43297">
        <ele>31.380127</ele>
        <time>2012-09-08T09:50:11Z</time>
      </trkpt>
      <trkpt lat="43.0014" lon="9.43281">
        <ele>31.860718</ele>
        <time>2012-09-08T09:50:22Z</time>
      </trkpt>
      <trkpt lat="43.00138" lon="9.43265">
        <ele>35.225464</ele>
        <time>2012-09-08T09:50:37Z</time>
      </trkpt>
      <trkpt lat="43.00138" lon="9.43259">
        <ele>34.744873</ele>
        <time>2012-09-08T09:50:41Z</time>
      </trkpt>
      <trkpt lat="43.00139" lon="9.43253">
        <ele>34.744873</ele>
        <time>2012-09-08T09:50:45Z</time>
      </trkpt>
      <trkpt lat="43.00145" lon="9.43228">
        <ele>36.66748</ele>
        <time>2012-09-08T09:51:03Z</time>
      </trkpt>
      <trkpt lat="43.00149" lon="9.43209">
        <ele>39.070679</ele>
        <time>2012-09-08T09:51:19Z</time>
      </trkpt>
      <trkpt lat="43.0015" lon="9.43197">
        <ele>42.435425</ele>
        <time>2012-09-08T09:51:33Z</time>
      </trkpt>
      <trkpt lat="43.00151" lon="9.43186">
        <ele>44.838623</ele>
        <time>2012-09-08T09:51:47Z</time>
      </trkpt>
      <trkpt lat="43.00151" lon="9.43178">
        <ele>46.28064</ele>
        <time>2012-09-08T09:52:00Z</time>
      </trkpt>
      <trkpt lat="43.0015" lon="9.43167">
        <ele>47.722534</ele>
        <time>2012-09-08T09:52:13Z</time>
      </trkpt>
      <trkpt lat="43.00149" lon="9.43158">
        <ele>50.125977</ele>
        <time>2012-09-08T09:52:27Z</time>
      </trkpt>
      <trkpt lat="43.00149" lon="9.43149">
        <ele>52.048584</ele>
        <time>2012-09-08T09:52:41Z</time>
      </trkpt>
      <trkpt lat="43.00149" lon="9.43141">
        <ele>54.451782</ele>
        <time>2012-09-08T09:52:55Z</time>
      </trkpt>
      <trkpt lat="43.00148" lon="9.43132">
        <ele>57.816528</ele>
        <time>2012-09-08T09:53:06Z</time>
      </trkpt>
      <trkpt lat="43.00145" lon="9.43125">
        <ele>59.258423</ele>
        <time>2012-09-08T09:53:23Z</time>
      </trkpt>
      <trkpt lat="43.00144" lon="9.4312">
        <ele>60.700317</ele>
        <time>2012-09-08T09:53:32Z</time>
      </trkpt>
      <trkpt lat="43.00139" lon="9.43102">
        <ele>63.103638</ele>
        <time>2012-09-08T09:53:51Z</time>
      </trkpt>
      <trkpt lat="43.00139" lon="9.43089">
        <ele>65.50708</ele>
        <time>2012-09-08T09:54:07Z</time>
      </trkpt>
      <trkpt lat="43.00141" lon="9.43076">
        <ele>67.429688</ele>
        <time>2012-09-08T09:54:23Z</time>
      </trkpt>
      <trkpt lat="43.00141" lon="9.43067">
        <ele>69.832886</ele>
        <time>2012-09-08T09:54:33Z</time>
      </trkpt>
      <trkpt lat="43.00139" lon="9.43056">
        <ele>71.755493</ele>
        <time>2012-09-08T09:54:47Z</time>
      </trkpt>
      <trkpt lat="43.0014" lon="9.43044">
        <ele>74.158813</ele>
        <time>2012-09-08T09:55:02Z</time>
      </trkpt>
      <trkpt lat="43.00142" lon="9.43032">
        <ele>75.120239</ele>
        <time>2012-09-08T09:55:12Z</time>
      </trkpt>
      <trkpt lat="43.00148" lon="9.43007">
        <ele>78.004028</ele>
        <time>2012-09-08T09:55:33Z</time>
      </trkpt>
      <trkpt lat="43.00147" lon="9.42997">
        <ele>78.484741</ele>
        <time>2012-09-08T09:55:49Z</time>
      </trkpt>
      <trkpt lat="43.00147" lon="9.4299">
        <ele>79.926636</ele>
        <time>2012-09-08T09:56:03Z</time>
      </trkpt>
      <trkpt lat="43.00147" lon="9.42978">
        <ele>80.888184</ele>
        <time>2012-09-08T09:56:23Z</time>
      </trkpt>
      <trkpt lat="43.00148" lon="9.42972">
        <ele>80.407471</ele>
        <time>2012-09-08T09:56:39Z</time>
      </trkpt>
      <trkpt lat="43.00148" lon="9.42972">
        <ele>81.849365</ele>
        <time>2012-09-08T09:57:18Z</time>
      </trkpt>
      <trkpt lat="43.00149" lon="9.42965">
        <ele>81.849365</ele>
        <time>2012-09-08T09:57:38Z</time>
      </trkpt>
      <trkpt lat="43.00138" lon="9.42936">
        <ele>83.771973</ele>
        <time>2012-09-08T09:58:01Z</time>
      </trkpt>
      <trkpt lat="43.00132" lon="9.42915">
        <ele>84.252686</ele>
        <time>2012-09-08T09:58:16Z</time>
      </trkpt>
      <trkpt lat="43.00131" lon="9.42913">
        <ele>84.733398</ele>
        <time>2012-09-08T09:58:18Z</time>
      </trkpt>
      <trkpt lat="43.00131" lon="9.42907">
        <ele>85.213989</ele>
        <time>2012-09-08T09:58:22Z</time>
      </trkpt>
      <trkpt lat="43.00126" lon="9.42887">
        <ele>87.617188</ele>
        <time>2012-09-08T09:58:40Z</time>
      </trkpt>
      <trkpt lat="43.00129" lon="9.42871">
        <ele>88.578735</ele>
        <time>2012-09-08T09:58:56Z</time>
      </trkpt>
      <trkpt lat="43.00134" lon="9.42857">
        <ele>90.02063</ele>
        <time>2012-09-08T09:59:11Z</time>
      </trkpt>
      <trkpt lat="43.00138" lon="9.42845">
        <ele>92.904541</ele>
        <time>2012-09-08T09:59:24Z</time>
      </trkpt>
      <trkpt lat="43.00147" lon="9.42829">
        <ele>96.269287</ele>
        <time>2012-09-08T09:59:42Z</time>
      </trkpt>
      <trkpt lat="43.00149" lon="9.42812">
        <ele>97.230469</ele>
        <time>2012-09-08T09:59:58Z</time>
      </trkpt>
      <trkpt lat="43.0015" lon="9.42806">
        <ele>98.191895</ele>
        <time>2012-09-08T10:00:04Z</time>
      </trkpt>
      <trkpt lat="43.00156" lon="9.42793">
        <ele>99.633789</ele>
        <time>2012-09-08T10:00:19Z</time>
      </trkpt>
      <trkpt lat="43.00161" lon="9.42779">
        <ele>101.556396</ele>
        <time>2012-09-08T10:00:33Z</time>
      </trkpt>
      <trkpt lat="43.00163" lon="9.42765">
        <ele>102.998291</ele>
        <time>2012-09-08T10:00:48Z</time>
      </trkpt>
      <trkpt lat="43.00165" lon="9.42751">
        <ele>105.882446</ele>
        <time>2012-09-08T10:01:03Z</time>
      </trkpt>
      <trkpt lat="43.00167" lon="9.42738">
        <ele>107.805054</ele>
        <time>2012-09-08T10:01:18Z</time>
      </trkpt>
      <trkpt lat="43.00171" lon="9.42727">
        <ele>110.688843</ele>
        <time>2012-09-08T10:01:30Z</time>
      </trkpt>
      <trkpt lat="43.0018" lon="9.42713">
        <ele>111.169556</ele>
        <time>2012-09-08T10:01:45Z</time>
      </trkpt>
      <trkpt lat="43.00187" lon="9.42683">
        <ele>111.169556</ele>
        <time>2012-09-08T10:02:04Z</time>
      </trkpt>
      <trkpt lat="43.00193" lon="9.42646">
        <ele>111.169556</ele>
        <time>2012-09-08T10:02:25Z</time>
      </trkpt>
      <trkpt lat="43.00203" lon="9.42622">
        <ele>111.169556</ele>
        <time>2012-09-08T10:02:42Z</time>
      </trkpt>
      <trkpt lat="43.00222" lon="9.42602">
        <ele>111.650269</ele>
        <time>2012-09-08T10:03:02Z</time>
      </trkpt>
      <trkpt lat="43.00227" lon="9.42592">
        <ele>112.611572</ele>
        <time>2012-09-08T10:03:11Z</time>
      </trkpt>
      <trkpt lat="43.00247" lon="9.42584">
        <ele>112.611572</ele>
        <time>2012-09-08T10:03:29Z</time>
      </trkpt>
      <trkpt lat="43.00268" lon="9.4258">
        <ele>111.650269</ele>
        <time>2012-09-08T10:03:46Z</time>
      </trkpt>
      <trkpt lat="43.00291" lon="9.42574">
        <ele>113.092285</ele>
        <time>2012-09-08T10:04:06Z</time>
      </trkpt>
      <trkpt lat="43.0031" lon="9.42573">
        <ele>112.611572</ele>
        <time>2012-09-08T10:04:22Z</time>
      </trkpt>
      <trkpt lat="43.00322" lon="9.42576">
        <ele>112.611572</ele>
        <time>2012-09-08T10:04:36Z</time>
      </trkpt>
      <trkpt lat="43.00349" lon="9.4258">
        <ele>114.053589</ele>
        <time>2012-09-08T10:04:58Z</time>
      </trkpt>
      <trkpt lat="43.00376" lon="9.42586">
        <ele>113.572998</ele>
        <time>2012-09-08T10:05:19Z</time>
      </trkpt>
      <trkpt lat="43.00401" lon="9.42577">
        <ele>115.495605</ele>
        <time>2012-09-08T10:05:41Z</time>
      </trkpt>
      <trkpt lat="43.00412" lon="9.42573">
        <ele>115.976196</ele>
        <time>2012-09-08T10:05:57Z</time>
      </trkpt>
      <trkpt lat="43.00417" lon="9.42574">
        <ele>115.495605</ele>
        <time>2012-09-08T10:06:13Z</time>
      </trkpt>
      <trkpt lat="43.00416" lon="9.42574">
        <ele>115.495605</ele>
        <time>2012-09-08T10:06:27Z</time>
      </trkpt>
      <trkpt lat="43.00419" lon="9.42581">
        <ele>115.495605</ele>
        <time>2012-09-08T10:06:33Z</time>
      </trkpt>
      <trkpt lat="43.00444" lon="9.42598">
        <ele>117.898804</ele>
        <time>2012-09-08T10:06:53Z</time>
      </trkpt>
      <trkpt lat="43.00448" lon="9.42602">
        <ele>119.34082</ele>
        <time>2012-09-08T10:06:58Z</time>
      </trkpt>
      <trkpt lat="43.00459" lon="9.42599">
        <ele>121.26355</ele>
        <time>2012-09-08T10:07:10Z</time>
      </trkpt>
      <trkpt lat="43.00478" lon="9.42609">
        <ele>124.147339</ele>
        <time>2012-09-08T10:07:29Z</time>
      </trkpt>
      <trkpt lat="43.00492" lon="9.42626">
        <ele>126.069946</ele>
        <time>2012-09-08T10:07:48Z</time>
      </trkpt>
      <trkpt lat="43.0051" lon="9.42643">
        <ele>125.589355</ele>
        <time>2012-09-08T10:08:07Z</time>
      </trkpt>
      <trkpt lat="43.00525" lon="9.42659">
        <ele>126.550659</ele>
        <time>2012-09-08T10:08:24Z</time>
      </trkpt>
      <trkpt lat="43.00545" lon="9.42677">
        <ele>126.550659</ele>
        <time>2012-09-08T10:08:45Z</time>
      </trkpt>
      <trkpt lat="43.00567" lon="9.42691">
        <ele>127.031372</ele>
        <time>2012-09-08T10:09:05Z</time>
      </trkpt>
      <trkpt lat="43.00571" lon="9.42694">
        <ele>127.511963</ele>
        <time>2012-09-08T10:09:10Z</time>
      </trkpt>
      <trkpt lat="43.00586" lon="9.42712">
        <ele>126.550659</ele>
        <time>2012-09-08T10:09:30Z</time>
      </trkpt>
      <trkpt lat="43.00607" lon="9.42735">
        <ele>124.147339</ele>
        <time>2012-09-08T10:09:53Z</time>
      </trkpt>
      <trkpt lat="43.00628" lon="9.42755">
        <ele>122.224731</ele>
        <time>2012-09-08T10:10:15Z</time>
      </trkpt>
      <trkpt lat="43.0064" lon="9.42768">
        <ele>121.26355</ele>
        <time>2012-09-08T10:10:33Z</time>
      </trkpt>
      <trkpt lat="43.00641" lon="9.42769">
        <ele>120.782837</ele>
        <time>2012-09-08T10:10:35Z</time>
      </trkpt>
      <trkpt lat="43.00647" lon="9.42776">
        <ele>120.302124</ele>
        <time>2012-09-08T10:10:43Z</time>
      </trkpt>
      <trkpt lat="43.00653" lon="9.42777">
        <ele>120.302124</ele>
        <time>2012-09-08T10:10:49Z</time>
      </trkpt>
      <trkpt lat="43.0067" lon="9.42779">
        <ele>117.418213</ele>
        <time>2012-09-08T10:11:07Z</time>
      </trkpt>
      <trkpt lat="43.00683" lon="9.42778">
        <ele>115.495605</ele>
        <time>2012-09-08T10:11:24Z</time>
      </trkpt>
      <trkpt lat="43.00694" lon="9.42777">
        <ele>113.572998</ele>
        <time>2012-09-08T10:11:40Z</time>
      </trkpt>
      <trkpt lat="43.00698" lon="9.42782">
        <ele>113.092285</ele>
        <time>2012-09-08T10:11:55Z</time>
      </trkpt>
      <trkpt lat="43.0071" lon="9.42781">
        <ele>111.650269</ele>
        <time>2012-09-08T10:12:13Z</time>
      </trkpt>
      <trkpt lat="43.00714" lon="9.42782">
        <ele>111.169556</ele>
        <time>2012-09-08T10:12:24Z</time>
      </trkpt>
      <trkpt lat="43.0072" lon="9.42782">
        <ele>109.727661</ele>
        <time>2012-09-08T10:12:40Z</time>
      </trkpt>
      <trkpt lat="43.00725" lon="9.42779">
        <ele>109.246948</ele>
        <time>2012-09-08T10:13:04Z</time>
      </trkpt>
      <trkpt lat="43.0073" lon="9.42778">
        <ele>107.805054</ele>
        <time>2012-09-08T10:13:17Z</time>
      </trkpt>
      <trkpt lat="43.00737" lon="9.42779">
        <ele>106.363037</ele>
        <time>2012-09-08T10:13:31Z</time>
      </trkpt>
      <trkpt lat="43.00742" lon="9.42782">
        <ele>103.959717</ele>
        <time>2012-09-08T10:13:45Z</time>
      </trkpt>
      <trkpt lat="43.00752" lon="9.42782">
        <ele>103.479004</ele>
        <time>2012-09-08T10:14:02Z</time>
      </trkpt>
      <trkpt lat="43.00761" lon="9.42778">
        <ele>101.075684</ele>
        <time>2012-09-08T10:14:20Z</time>
      </trkpt>
      <trkpt lat="43.00765" lon="9.42776">
        <ele>100.114502</ele>
        <time>2012-09-08T10:14:35Z</time>
      </trkpt>
      <trkpt lat="43.00773" lon="9.42773">
        <ele>97.230469</ele>
        <time>2012-09-08T10:15:09Z</time>
      </trkpt>
      <trkpt lat="43.00783" lon="9.42771">
        <ele>94.346558</ele>
        <time>2012-09-08T10:15:26Z</time>
      </trkpt>
      <trkpt lat="43.00786" lon="9.4277">
        <ele>92.904541</ele>
        <time>2012-09-08T10:15:32Z</time>
      </trkpt>
      <trkpt lat="43.00794" lon="9.4277">
        <ele>90.501343</ele>
        <time>2012-09-08T10:15:48Z</time>
      </trkpt>
      <trkpt lat="43.00804" lon="9.42776">
        <ele>87.136597</ele>
        <time>2012-09-08T10:16:07Z</time>
      </trkpt>
      <trkpt lat="43.00815" lon="9.42778">
        <ele>85.69458</ele>
        <time>2012-09-08T10:16:24Z</time>
      </trkpt>
      <trkpt lat="43.00825" lon="9.42777">
        <ele>83.291382</ele>
        <time>2012-09-08T10:16:40Z</time>
      </trkpt>
      <trkpt lat="43.00829" lon="9.42775">
        <ele>81.849365</ele>
        <time>2012-09-08T10:17:01Z</time>
      </trkpt>
      <trkpt lat="43.00829" lon="9.42768">
        <ele>81.368774</ele>
        <time>2012-09-08T10:17:26Z</time>
      </trkpt>
      <trkpt lat="43.00835" lon="9.42761">
        <ele>78.965454</ele>
        <time>2012-09-08T10:17:41Z</time>
      </trkpt>
      <trkpt lat="43.00842" lon="9.4276">
        <ele>77.523438</ele>
        <time>2012-09-08T10:17:57Z</time>
      </trkpt>
      <trkpt lat="43.00846" lon="9.42753">
        <ele>74.639526</ele>
        <time>2012-09-08T10:18:15Z</time>
      </trkpt>
      <trkpt lat="43.00852" lon="9.42749">
        <ele>71.755493</ele>
        <time>2012-09-08T10:18:31Z</time>
      </trkpt>
      <trkpt lat="43.00856" lon="9.42744">
        <ele>70.313477</ele>
        <time>2012-09-08T10:18:45Z</time>
      </trkpt>
      <trkpt lat="43.00862" lon="9.42742">
        <ele>68.390869</ele>
        <time>2012-09-08T10:18:59Z</time>
      </trkpt>
      <trkpt lat="43.00871" lon="9.42736">
        <ele>65.50708</ele>
        <time>2012-09-08T10:19:15Z</time>
      </trkpt>
      <trkpt lat="43.00878" lon="9.42728">
        <ele>65.026367</ele>
        <time>2012-09-08T10:19:29Z</time>
      </trkpt>
      <trkpt lat="43.00886" lon="9.42717">
        <ele>62.622925</ele>
        <time>2012-09-08T10:19:45Z</time>
      </trkpt>
      <trkpt lat="43.00892" lon="9.42709">
        <ele>61.18103</ele>
        <time>2012-09-08T10:19:55Z</time>
      </trkpt>
      <trkpt lat="43.009" lon="9.42704">
        <ele>58.77771</ele>
        <time>2012-09-08T10:20:11Z</time>
      </trkpt>
      <trkpt lat="43.00905" lon="9.42702">
        <ele>55.413086</ele>
        <time>2012-09-08T10:20:24Z</time>
      </trkpt>
      <trkpt lat="43.00909" lon="9.42698">
        <ele>53.490479</ele>
        <time>2012-09-08T10:20:37Z</time>
      </trkpt>
      <trkpt lat="43.00913" lon="9.42688">
        <ele>51.087158</ele>
        <time>2012-09-08T10:20:56Z</time>
      </trkpt>
      <trkpt lat="43.00917" lon="9.42685">
        <ele>48.68396</ele>
        <time>2012-09-08T10:21:09Z</time>
      </trkpt>
      <trkpt lat="43.00919" lon="9.42677">
        <ele>46.76123</ele>
        <time>2012-09-08T10:21:25Z</time>
      </trkpt>
      <trkpt lat="43.00919" lon="9.42677">
        <ele>47.241821</ele>
        <time>2012-09-08T10:21:57Z</time>
      </trkpt>
      <trkpt lat="43.0092" lon="9.42673">
        <ele>45.799927</ele>
        <time>2012-09-08T10:22:15Z</time>
      </trkpt>
      <trkpt lat="43.00927" lon="9.4267">
        <ele>42.916016</ele>
        <time>2012-09-08T10:22:28Z</time>
      </trkpt>
      <trkpt lat="43.00935" lon="9.42674">
        <ele>40.512817</ele>
        <time>2012-09-08T10:22:41Z</time>
      </trkpt>
      <trkpt lat="43.0094" lon="9.42679">
        <ele>40.032104</ele>
        <time>2012-09-08T10:22:58Z</time>
      </trkpt>
      <trkpt lat="43.00946" lon="9.42688">
        <ele>37.628662</ele>
        <time>2012-09-08T10:23:14Z</time>
      </trkpt>
      <trkpt lat="43.00955" lon="9.42687">
        <ele>35.225464</ele>
        <time>2012-09-08T10:23:32Z</time>
      </trkpt>
      <trkpt lat="43.00956" lon="9.42687">
        <ele>34.744873</ele>
        <time>2012-09-08T10:23:33Z</time>
      </trkpt>
      <trkpt lat="43.00957" lon="9.42688">
        <ele>34.744873</ele>
        <time>2012-09-08T10:23:35Z</time>
      </trkpt>
      <trkpt lat="43.00974" lon="9.42695">
        <ele>32.822266</ele>
        <time>2012-09-08T10:23:52Z</time>
      </trkpt>
      <trkpt lat="43.0098" lon="9.427">
        <ele>33.783447</ele>
        <time>2012-09-08T10:24:04Z</time>
      </trkpt>
      <trkpt lat="43.00983" lon="9.42706">
        <ele>37.148071</ele>
        <time>2012-09-08T10:24:20Z</time>
      </trkpt>
      <trkpt lat="43.00991" lon="9.4271">
        <ele>38.109375</ele>
        <time>2012-09-08T10:24:33Z</time>
      </trkpt>
    </trkseg>
  </trk>
  <trk>
    <name><![CDATA[ACTIVE LOG 002]]></name>
    <trkseg>
      <trkpt lat="43.01002" lon="9.42717">
        <ele>40.032104</ele>
        <time>2012-09-08T10:24:55Z</time>
      </trkpt>
      <trkpt lat="43.01002" lon="9.42717">
        <ele>42.435425</ele>
        <time>2012-09-08T10:25:04Z</time>
      </trkpt>
      <trkpt lat="43.0091" lon="9.42746">
        <ele>43.396606</ele>
        <time>2012-09-08T10:25:08Z</time>
      </trkpt>
      <trkpt lat="43.00938" lon="9.42735">
        <ele>43.396606</ele>
        <time>2012-09-08T10:25:15Z</time>
      </trkpt>
      <trkpt lat="43.00922" lon="9.42725">
        <ele>44.358032</ele>
        <time>2012-09-08T10:25:25Z</time>
      </trkpt>
      <trkpt lat="43.00981" lon="9.42706">
        <ele>44.838623</ele>
        <time>2012-09-08T10:25:36Z</time>
      </trkpt>
      <trkpt lat="43.00977" lon="9.42709">
        <ele>44.358032</ele>
        <time>2012-09-08T10:25:45Z</time>
      </trkpt>
      <trkpt lat="43.00979" lon="9.4271">
        <ele>43.396606</ele>
        <time>2012-09-08T10:25:48Z</time>
      </trkpt>
      <trkpt lat="43.00988" lon="9.42706">
        <ele>42.916016</ele>
        <time>2012-09-08T10:26:03Z</time>
      </trkpt>
      <trkpt lat="43.00982" lon="9.42703">
        <ele>40.032104</ele>
        <time>2012-09-08T10:26:17Z</time>
      </trkpt>
    </trkseg>
  </trk>
  <trk>
    <name><![CDATA[ACTIVE LOG 003]]></name>
    <trkseg>
      <trkpt lat="43.00979" lon="9.42701">
        <ele>40.032104</ele>
        <time>2012-09-08T10:26:41Z</time>
      </trkpt>
      <trkpt lat="43.00979" lon="9.42701">
        <ele>37.628662</ele>
        <time>2012-09-08T10:27:28Z</time>
      </trkpt>
    </trkseg>
  </trk>
  <trk>
    <name><![CDATA[ACTIVE LOG 004]]></name>
    <trkseg>
      <trkpt lat="43.00978" lon="9.427">
        <ele>36.66748</ele>
        <time>2012-09-08T10:27:32Z</time>
      </trkpt>
      <trkpt lat="43.00979" lon="9.42698">
        <ele>34.744873</ele>
        <time>2012-09-08T10:27:47Z</time>
      </trkpt>
      <trkpt lat="43.00978" lon="9.42697">
        <ele>34.744873</ele>
        <time>2012-09-08T10:27:49Z</time>
      </trkpt>
      <trkpt lat="43.00972" lon="9.42693">
        <ele>33.302856</ele>
        <time>2012-09-08T10:27:56Z</time>
      </trkpt>
      <trkpt lat="43.00968" lon="9.42688">
        <ele>31.860718</ele>
        <time>2012-09-08T10:28:01Z</time>
      </trkpt>
      <trkpt lat="43.00963" lon="9.42669">
        <ele>31.380127</ele>
        <time>2012-09-08T10:28:16Z</time>
      </trkpt>
      <trkpt lat="43.00962" lon="9.42663">
        <ele>28.976929</ele>
        <time>2012-09-08T10:28:23Z</time>
      </trkpt>
      <trkpt lat="43.0096" lon="9.42645">
        <ele>28.976929</ele>
        <time>2012-09-08T10:28:41Z</time>
      </trkpt>
      <trkpt lat="43.0096" lon="9.42643">
        <ele>28.976929</ele>
        <time>2012-09-08T10:28:44Z</time>
      </trkpt>
      <trkpt lat="43.00946" lon="9.42619">
        <ele>28.015503</ele>
        <time>2012-09-08T10:29:01Z</time>
      </trkpt>
      <trkpt lat="43.00937" lon="9.42609">
        <ele>27.534912</ele>
        <time>2012-09-08T10:29:17Z</time>
      </trkpt>
      <trkpt lat="43.00931" lon="9.42601">
        <ele>27.534912</ele>
        <time>2012-09-08T10:29:23Z</time>
      </trkpt>
      <trkpt lat="43.00928" lon="9.42582">
        <ele>26.092896</ele>
        <time>2012-09-08T10:29:36Z</time>
      </trkpt>
      <trkpt lat="43.00925" lon="9.42574">
        <ele>25.612305</ele>
        <time>2012-09-08T10:29:41Z</time>
      </trkpt>
      <trkpt lat="43.00919" lon="9.42547">
        <ele>24.170288</ele>
        <time>2012-09-08T10:29:57Z</time>
      </trkpt>
      <trkpt lat="43.0092" lon="9.42526">
        <ele>23.689575</ele>
        <time>2012-09-08T10:30:07Z</time>
      </trkpt>
      <trkpt lat="43.00921" lon="9.42505">
        <ele>19.36377</ele>
        <time>2012-09-08T10:30:18Z</time>
      </trkpt>
      <trkpt lat="43.00916" lon="9.42496">
        <ele>18.402344</ele>
        <time>2012-09-08T10:30:23Z</time>
      </trkpt>
      <trkpt lat="43.00911" lon="9.42485">
        <ele>17.441162</ele>
        <time>2012-09-08T10:30:29Z</time>
      </trkpt>
      <trkpt lat="43.00904" lon="9.42471">
        <ele>16.479736</ele>
        <time>2012-09-08T10:30:38Z</time>
      </trkpt>
      <trkpt lat="43.00893" lon="9.42461">
        <ele>15.03772</ele>
        <time>2012-09-08T10:30:47Z</time>
      </trkpt>
      <trkpt lat="43.00888" lon="9.42458">
        <ele>13.595825</ele>
        <time>2012-09-08T10:30:52Z</time>
      </trkpt>
      <trkpt lat="43.00882" lon="9.4245">
        <ele>11.192505</ele>
        <time>2012-09-08T10:31:04Z</time>
      </trkpt>
      <trkpt lat="43.00883" lon="9.42431">
        <ele>9.269897</ele>
        <time>2012-09-08T10:31:13Z</time>
      </trkpt>
      <trkpt lat="43.00883" lon="9.42423">
        <ele>10.231201</ele>
        <time>2012-09-08T10:31:17Z</time>
      </trkpt>
      <trkpt lat="43.00882" lon="9.42414">
        <ele>10.711792</ele>
        <time>2012-09-08T10:31:35Z</time>
      </trkpt>
      <trkpt lat="43.00881" lon="9.42395">
        <ele>13.115112</ele>
        <time>2012-09-08T10:31:52Z</time>
      </trkpt>
      <trkpt lat="43.00881" lon="9.42386">
        <ele>14.557007</ele>
        <time>2012-09-08T10:32:00Z</time>
      </trkpt>
      <trkpt lat="43.00882" lon="9.42382">
        <ele>14.557007</ele>
        <time>2012-09-08T10:32:03Z</time>
      </trkpt>
      <trkpt lat="43.00888" lon="9.4236">
        <ele>12.634399</ele>
        <time>2012-09-08T10:32:20Z</time>
      </trkpt>
      <trkpt lat="43.00896" lon="9.42345">
        <ele>10.711792</ele>
        <time>2012-09-08T10:32:36Z</time>
      </trkpt>
      <trkpt lat="43.00902" lon="9.42334">
        <ele>8.308594</ele>
        <time>2012-09-08T10:32:53Z</time>
      </trkpt>
      <trkpt lat="43.00906" lon="9.42325">
        <ele>4.943848</ele>
        <time>2012-09-08T10:33:08Z</time>
      </trkpt>
      <trkpt lat="43.00907" lon="9.4232">
        <ele>4.463257</ele>
        <time>2012-09-08T10:33:13Z</time>
      </trkpt>
      <trkpt lat="43.00924" lon="9.42314">
        <ele>7.827881</ele>
        <time>2012-09-08T10:33:31Z</time>
      </trkpt>
      <trkpt lat="43.00935" lon="9.42304">
        <ele>5.905273</ele>
        <time>2012-09-08T10:33:45Z</time>
      </trkpt>
      <trkpt lat="43.00944" lon="9.42301">
        <ele>6.385864</ele>
        <time>2012-09-08T10:33:54Z</time>
      </trkpt>
      <trkpt lat="43.0096" lon="9.4231">
        <ele>6.385864</ele>
        <time>2012-09-08T10:34:10Z</time>
      </trkpt>
      <trkpt lat="43.00963" lon="9.42311">
        <ele>6.385864</ele>
        <time>2012-09-08T10:34:13Z</time>
      </trkpt>
      <trkpt lat="43.00964" lon="9.42319">
        <ele>6.385864</ele>
        <time>2012-09-08T10:34:19Z</time>
      </trkpt>
      <trkpt lat="43.0097" lon="9.42324">
        <ele>5.905273</ele>
        <time>2012-09-08T10:34:26Z</time>
      </trkpt>
      <trkpt lat="43.0098" lon="9.42323">
        <ele>5.905273</ele>
        <time>2012-09-08T10:34:36Z</time>
      </trkpt>
      <trkpt lat="43.0099" lon="9.42305">
        <ele>6.385864</ele>
        <time>2012-09-08T10:34:49Z</time>
      </trkpt>
      <trkpt lat="43.00994" lon="9.42304">
        <ele>6.385864</ele>
        <time>2012-09-08T10:34:54Z</time>
      </trkpt>
      <trkpt lat="43.01003" lon="9.42306">
        <ele>6.385864</ele>
        <time>2012-09-08T10:35:03Z</time>
      </trkpt>
      <trkpt lat="43.01018" lon="9.42317">
        <ele>8.789185</ele>
        <time>2012-09-08T10:35:21Z</time>
      </trkpt>
      <trkpt lat="43.01018" lon="9.42318">
        <ele>8.789185</ele>
        <time>2012-09-08T10:35:22Z</time>
      </trkpt>
      <trkpt lat="43.01019" lon="9.42321">
        <ele>8.789185</ele>
        <time>2012-09-08T10:35:24Z</time>
      </trkpt>
      <trkpt lat="43.01028" lon="9.42342">
        <ele>7.347168</ele>
        <time>2012-09-08T10:35:40Z</time>
      </trkpt>
      <trkpt lat="43.01036" lon="9.42348">
        <ele>7.347168</ele>
        <time>2012-09-08T10:35:51Z</time>
      </trkpt>
      <trkpt lat="43.01044" lon="9.42345">
        <ele>9.269897</ele>
        <time>2012-09-08T10:35:59Z</time>
      </trkpt>
      <trkpt lat="43.01052" lon="9.42345">
        <ele>9.269897</ele>
        <time>2012-09-08T10:36:10Z</time>
      </trkpt>
      <trkpt lat="43.01054" lon="9.42348">
        <ele>9.269897</ele>
        <time>2012-09-08T10:36:13Z</time>
      </trkpt>
      <trkpt lat="43.0106" lon="9.42345">
        <ele>9.269897</ele>
        <time>2012-09-08T10:36:26Z</time>
      </trkpt>
      <trkpt lat="43.01062" lon="9.42341">
        <ele>9.269897</ele>
        <time>2012-09-08T10:36:34Z</time>
      </trkpt>
      <trkpt lat="43.01064" lon="9.42337">
        <ele>8.789185</ele>
        <time>2012-09-08T10:36:49Z</time>
      </trkpt>
      <trkpt lat="43.01064" lon="9.42332">
        <ele>9.269897</ele>
        <time>2012-09-08T10:36:56Z</time>
      </trkpt>
      <trkpt lat="43.01065" lon="9.42326">
        <ele>8.789185</ele>
        <time>2012-09-08T10:37:09Z</time>
      </trkpt>
      <trkpt lat="43.0107" lon="9.42315">
        <ele>6.385864</ele>
        <time>2012-09-08T10:37:25Z</time>
      </trkpt>
      <trkpt lat="43.01074" lon="9.42312">
        <ele>3.982666</ele>
        <time>2012-09-08T10:37:42Z</time>
      </trkpt>
      <trkpt lat="43.01079" lon="9.42311">
        <ele>2.060059</ele>
        <time>2012-09-08T10:38:15Z</time>
      </trkpt>
      <trkpt lat="43.01085" lon="9.42301">
        <ele>3.501953</ele>
        <time>2012-09-08T10:38:28Z</time>
      </trkpt>
      <trkpt lat="43.01086" lon="9.42293">
        <ele>3.982666</ele>
        <time>2012-09-08T10:38:39Z</time>
      </trkpt>
    </trkseg>
  </trk>
  <trk>
    <name><![CDATA[ACTIVE LOG 005]]></name>
    <trkseg>
      <trkpt lat="43.01092" lon="9.42302">
        <ele>2.540649</ele>
        <time>2012-09-08T10:39:20Z</time>
      </trkpt>
    </trkseg>
  </trk>
  <trk>
    <name><![CDATA[ACTIVE LOG 006]]></name>
    <trkseg>
      <trkpt lat="43.01089" lon="9.42298">
        <ele>3.501953</ele>
        <time>2012-09-08T10:39:37Z</time>
      </trkpt>
      <trkpt lat="43.01084" lon="9.42297">
        <ele>3.982666</ele>
        <time>2012-09-08T10:52:18Z</time>
      </trkpt>
      <trkpt lat="43.01085" lon="9.423">
        <ele>3.982666</ele>
        <time>2012-09-08T10:53:12Z</time>
      </trkpt>
      <trkpt lat="43.01088" lon="9.42309">
        <ele>4.943848</ele>
        <time>2012-09-08T10:54:11Z</time>
      </trkpt>
      <trkpt lat="43.01099" lon="9.42308">
        <ele>4.463257</ele>
        <time>2012-09-08T10:56:28Z</time>
      </trkpt>
      <trkpt lat="43.01116" lon="9.42301">
        <ele>4.463257</ele>
        <time>2012-09-08T10:57:01Z</time>
      </trkpt>
      <trkpt lat="43.01129" lon="9.42297">
        <ele>4.943848</ele>
        <time>2012-09-08T10:57:18Z</time>
      </trkpt>
      <trkpt lat="43.01109" lon="9.42302">
        <ele>5.905273</ele>
        <time>2012-09-08T10:57:35Z</time>
      </trkpt>
      <trkpt lat="43.01116" lon="9.42293">
        <ele>5.905273</ele>
        <time>2012-09-08T10:57:50Z</time>
      </trkpt>
      <trkpt lat="43.01129" lon="9.42293">
        <ele>6.385864</ele>
        <time>2012-09-08T10:58:14Z</time>
      </trkpt>
      <trkpt lat="43.01127" lon="9.42299">
        <ele>6.866455</ele>
        <time>2012-09-08T10:58:36Z</time>
      </trkpt>
      <trkpt lat="43.01114" lon="9.423">
        <ele>6.866455</ele>
        <time>2012-09-08T10:59:06Z</time>
      </trkpt>
      <trkpt lat="43.01098" lon="9.42305">
        <ele>7.347168</ele>
        <time>2012-09-08T10:59:17Z</time>
      </trkpt>
      <trkpt lat="43.01108" lon="9.42301">
        <ele>8.308594</ele>
        <time>2012-09-08T11:00:10Z</time>
      </trkpt>
      <trkpt lat="43.01096" lon="9.42301">
        <ele>8.308594</ele>
        <time>2012-09-08T11:00:34Z</time>
      </trkpt>
      <trkpt lat="43.01077" lon="9.42301">
        <ele>8.308594</ele>
        <time>2012-09-08T11:01:22Z</time>
      </trkpt>
      <trkpt lat="43.011" lon="9.42302">
        <ele>8.789185</ele>
        <time>2012-09-08T11:01:41Z</time>
      </trkpt>
      <trkpt lat="43.01096" lon="9.42309">
        <ele>8.789185</ele>
        <time>2012-09-08T11:02:18Z</time>
      </trkpt>
      <trkpt lat="43.01112" lon="9.42317">
        <ele>9.269897</ele>
        <time>2012-09-08T11:03:06Z</time>
      </trkpt>
      <trkpt lat="43.01088" lon="9.42305">
        <ele>10.711792</ele>
        <time>2012-09-08T11:04:59Z</time>
      </trkpt>
      <trkpt lat="43.01089" lon="9.42315">
        <ele>11.192505</ele>
        <time>2012-09-08T11:07:41Z</time>
      </trkpt>
      <trkpt lat="43.01087" lon="9.42311">
        <ele>11.192505</ele>
        <time>2012-09-08T11:08:13Z</time>
      </trkpt>
      <trkpt lat="43.01088" lon="9.42314">
        <ele>11.673218</ele>
        <time>2012-09-08T11:08:40Z</time>
      </trkpt>
      <trkpt lat="43.01087" lon="9.42313">
        <ele>11.673218</ele>
        <time>2012-09-08T11:09:40Z</time>
      </trkpt>
      <trkpt lat="43.01084" lon="9.42301">
        <ele>13.115112</ele>
        <time>2012-09-08T11:13:51Z</time>
      </trkpt>
      <trkpt lat="43.0109" lon="9.4231">
        <ele>13.115112</ele>
        <time>2012-09-08T11:15:01Z</time>
      </trkpt>
      <trkpt lat="43.01087" lon="9.42302">
        <ele>13.115112</ele>
        <time>2012-09-08T11:15:56Z</time>
      </trkpt>
      <trkpt lat="43.01087" lon="9.42298">
        <ele>13.115112</ele>
        <time>2012-09-08T11:17:07Z</time>
      </trkpt>
      <trkpt lat="43.01089" lon="9.42305">
        <ele>13.115112</ele>
        <time>2012-09-08T11:17:42Z</time>
      </trkpt>
      <trkpt lat="43.01091" lon="9.42308">
        <ele>13.115112</ele>
        <time>2012-09-08T11:18:13Z</time>
      </trkpt>
      <trkpt lat="43.01088" lon="9.42305">
        <ele>13.115112</ele>
        <time>2012-09-08T11:18:46Z</time>
      </trkpt>
      <trkpt lat="43.01085" lon="9.42302">
        <ele>13.595825</ele>
        <time>2012-09-08T11:19:42Z</time>
      </trkpt>
      <trkpt lat="43.01086" lon="9.42305">
        <ele>13.595825</ele>
        <time>2012-09-08T11:20:05Z</time>
      </trkpt>
      <trkpt lat="43.01096" lon="9.42315">
        <ele>13.595825</ele>
        <time>2012-09-08T11:20:38Z</time>
      </trkpt>
      <trkpt lat="43.01096" lon="9.4232">
        <ele>13.115112</ele>
        <time>2012-09-08T11:20:54Z</time>
      </trkpt>
      <trkpt lat="43.01092" lon="9.42325">
        <ele>13.595825</ele>
        <time>2012-09-08T11:21:08Z</time>
      </trkpt>
      <trkpt lat="43.01087" lon="9.42306">
        <ele>14.076416</ele>
        <time>2012-09-08T11:22:13Z</time>
      </trkpt>
      <trkpt lat="43.01085" lon="9.423">
        <ele>14.076416</ele>
        <time>2012-09-08T11:24:56Z</time>
      </trkpt>
      <trkpt lat="43.01089" lon="9.42306">
        <ele>13.115112</ele>
        <time>2012-09-08T11:26:36Z</time>
      </trkpt>
      <trkpt lat="43.01086" lon="9.42296">
        <ele>13.115112</ele>
        <time>2012-09-08T11:27:06Z</time>
      </trkpt>
      <trkpt lat="43.01082" lon="9.42285">
        <ele>12.634399</ele>
        <time>2012-09-08T11:27:27Z</time>
      </trkpt>
      <trkpt lat="43.0108" lon="9.42284">
        <ele>13.115112</ele>
        <time>2012-09-08T11:27:48Z</time>
      </trkpt>
      <trkpt lat="43.01084" lon="9.42297">
        <ele>12.634399</ele>
        <time>2012-09-08T11:28:27Z</time>
      </trkpt>
      <trkpt lat="43.01087" lon="9.42298">
        <ele>12.153809</ele>
        <time>2012-09-08T11:28:51Z</time>
      </trkpt>
      <trkpt lat="43.01084" lon="9.42295">
        <ele>12.153809</ele>
        <time>2012-09-08T11:29:12Z</time>
      </trkpt>
      <trkpt lat="43.01089" lon="9.42308">
        <ele>12.153809</ele>
        <time>2012-09-08T11:29:34Z</time>
      </trkpt>
      <trkpt lat="43.01088" lon="9.42304">
        <ele>12.153809</ele>
        <time>2012-09-08T11:30:55Z</time>
      </trkpt>
      <trkpt lat="43.01094" lon="9.42314">
        <ele>12.634399</ele>
        <time>2012-09-08T11:31:33Z</time>
      </trkpt>
      <trkpt lat="43.01099" lon="9.42327">
        <ele>12.634399</ele>
        <time>2012-09-08T11:32:09Z</time>
      </trkpt>
      <trkpt lat="43.01099" lon="9.42328">
        <ele>13.115112</ele>
        <time>2012-09-08T11:33:47Z</time>
      </trkpt>
      <trkpt lat="43.01089" lon="9.42304">
        <ele>13.115112</ele>
        <time>2012-09-08T11:34:08Z</time>
      </trkpt>
      <trkpt lat="43.01087" lon="9.423">
        <ele>13.115112</ele>
        <time>2012-09-08T11:34:24Z</time>
      </trkpt>
      <trkpt lat="43.01087" lon="9.42301">
        <ele>13.115112</ele>
        <time>2012-09-08T11:34:57Z</time>
      </trkpt>
      <trkpt lat="43.01085" lon="9.42296">
        <ele>13.115112</ele>
        <time>2012-09-08T11:35:46Z</time>
      </trkpt>
      <trkpt lat="43.01084" lon="9.42293">
        <ele>12.153809</ele>
        <time>2012-09-08T11:36:15Z</time>
      </trkpt>
      <trkpt lat="43.01086" lon="9.42301">
        <ele>12.153809</ele>
        <time>2012-09-08T11:36:44Z</time>
      </trkpt>
      <trkpt lat="43.01085" lon="9.42307">
        <ele>11.673218</ele>
        <time>2012-09-08T11:42:47Z</time>
      </trkpt>
      <trkpt lat="43.01087" lon="9.42316">
        <ele>12.153809</ele>
        <time>2012-09-08T11:45:23Z</time>
      </trkpt>
      <trkpt lat="43.01088" lon="9.42308">
        <ele>12.153809</ele>
        <time>2012-09-08T11:46:02Z</time>
      </trkpt>
      <trkpt lat="43.01088" lon="9.42312">
        <ele>11.673218</ele>
        <time>2012-09-08T11:46:23Z</time>
      </trkpt>
      <trkpt lat="43.01087" lon="9.42307">
        <ele>11.673218</ele>
        <time>2012-09-08T11:46:43Z</time>
      </trkpt>
      <trkpt lat="43.01085" lon="9.42299">
        <ele>11.673218</ele>
        <time>2012-09-08T11:47:14Z</time>
      </trkpt>
      <trkpt lat="43.01086" lon="9.42301">
        <ele>11.673218</ele>
        <time>2012-09-08T11:47:51Z</time>
      </trkpt>
      <trkpt lat="43.01079" lon="9.42286">
        <ele>11.673218</ele>
        <time>2012-09-08T11:48:28Z</time>
      </trkpt>
      <trkpt lat="43.01088" lon="9.42315">
        <ele>10.711792</ele>
        <time>2012-09-08T11:50:03Z</time>
      </trkpt>
      <trkpt lat="43.01087" lon="9.42318">
        <ele>13.115112</ele>
        <time>2012-09-08T11:54:09Z</time>
      </trkpt>
      <trkpt lat="43.01085" lon="9.42307">
        <ele>12.153809</ele>
        <time>2012-09-08T12:01:44Z</time>
      </trkpt>
      <trkpt lat="43.01087" lon="9.42317">
        <ele>12.153809</ele>
        <time>2012-09-08T12:02:06Z</time>
      </trkpt>
      <trkpt lat="43.01086" lon="9.42315">
        <ele>12.153809</ele>
        <time>2012-09-08T12:04:01Z</time>
      </trkpt>
      <trkpt lat="43.01085" lon="9.42319">
        <ele>12.634399</ele>
        <time>2012-09-08T12:04:27Z</time>
      </trkpt>
      <trkpt lat="43.0108" lon="9.42295">
        <ele>11.192505</ele>
        <time>2012-09-08T12:07:29Z</time>
      </trkpt>
      <trkpt lat="43.0108" lon="9.42287">
        <ele>11.673218</ele>
        <time>2012-09-08T12:07:59Z</time>
      </trkpt>
      <trkpt lat="43.01083" lon="9.42296">
        <ele>11.192505</ele>
        <time>2012-09-08T12:09:39Z</time>
      </trkpt>
      <trkpt lat="43.01082" lon="9.42298">
        <ele>11.673218</ele>
        <time>2012-09-08T12:10:01Z</time>
      </trkpt>
      <trkpt lat="43.0108" lon="9.42302">
        <ele>11.192505</ele>
        <time>2012-09-08T12:10:16Z</time>
      </trkpt>
      <trkpt lat="43.01073" lon="9.42307">
        <ele>11.673218</ele>
        <time>2012-09-08T12:10:31Z</time>
      </trkpt>
      <trkpt lat="43.0107" lon="9.42314">
        <ele>11.673218</ele>
        <time>2012-09-08T12:10:46Z</time>
      </trkpt>
      <trkpt lat="43.01066" lon="9.42314">
        <ele>13.115112</ele>
        <time>2012-09-08T12:10:58Z</time>
      </trkpt>
      <trkpt lat="43.01061" lon="9.42323">
        <ele>14.557007</ele>
        <time>2012-09-08T12:11:12Z</time>
      </trkpt>
      <trkpt lat="43.01054" lon="9.42329">
        <ele>15.03772</ele>
        <time>2012-09-08T12:11:27Z</time>
      </trkpt>
      <trkpt lat="43.01046" lon="9.42326">
        <ele>16.479736</ele>
        <time>2012-09-08T12:11:41Z</time>
      </trkpt>
      <trkpt lat="43.01045" lon="9.42318">
        <ele>15.999023</ele>
        <time>2012-09-08T12:11:53Z</time>
      </trkpt>
      <trkpt lat="43.01054" lon="9.42303">
        <ele>17.441162</ele>
        <time>2012-09-08T12:12:09Z</time>
      </trkpt>
      <trkpt lat="43.01061" lon="9.42292">
        <ele>18.402344</ele>
        <time>2012-09-08T12:12:22Z</time>
      </trkpt>
      <trkpt lat="43.01074" lon="9.4228">
        <ele>20.805664</ele>
        <time>2012-09-08T12:12:40Z</time>
      </trkpt>
      <trkpt lat="43.01078" lon="9.42268">
        <ele>20.805664</ele>
        <time>2012-09-08T12:12:55Z</time>
      </trkpt>
      <trkpt lat="43.01082" lon="9.42251">
        <ele>23.208984</ele>
        <time>2012-09-08T12:13:11Z</time>
      </trkpt>
      <trkpt lat="43.01087" lon="9.42238">
        <ele>23.208984</ele>
        <time>2012-09-08T12:13:23Z</time>
      </trkpt>
      <trkpt lat="43.01098" lon="9.42221">
        <ele>25.131714</ele>
        <time>2012-09-08T12:13:41Z</time>
      </trkpt>
      <trkpt lat="43.01102" lon="9.42206">
        <ele>24.651001</ele>
        <time>2012-09-08T12:13:53Z</time>
      </trkpt>
      <trkpt lat="43.01096" lon="9.42188">
        <ele>24.170288</ele>
        <time>2012-09-08T12:14:10Z</time>
      </trkpt>
      <trkpt lat="43.01096" lon="9.42175">
        <ele>24.651001</ele>
        <time>2012-09-08T12:14:21Z</time>
      </trkpt>
      <trkpt lat="43.01099" lon="9.42165">
        <ele>24.651001</ele>
        <time>2012-09-08T12:14:29Z</time>
      </trkpt>
      <trkpt lat="43.01101" lon="9.4216">
        <ele>25.612305</ele>
        <time>2012-09-08T12:14:33Z</time>
      </trkpt>
      <trkpt lat="43.01104" lon="9.42148">
        <ele>26.573608</ele>
        <time>2012-09-08T12:14:43Z</time>
      </trkpt>
      <trkpt lat="43.01103" lon="9.42134">
        <ele>26.573608</ele>
        <time>2012-09-08T12:14:58Z</time>
      </trkpt>
      <trkpt lat="43.01102" lon="9.42133">
        <ele>26.092896</ele>
        <time>2012-09-08T12:15:13Z</time>
      </trkpt>
      <trkpt lat="43.01105" lon="9.42133">
        <ele>26.573608</ele>
        <time>2012-09-08T12:15:20Z</time>
      </trkpt>
      <trkpt lat="43.0111" lon="9.42125">
        <ele>27.054321</ele>
        <time>2012-09-08T12:15:35Z</time>
      </trkpt>
      <trkpt lat="43.01105" lon="9.42107">
        <ele>29.45752</ele>
        <time>2012-09-08T12:15:51Z</time>
      </trkpt>
      <trkpt lat="43.011" lon="9.42098">
        <ele>30.418823</ele>
        <time>2012-09-08T12:16:00Z</time>
      </trkpt>
      <trkpt lat="43.01092" lon="9.4208">
        <ele>32.341553</ele>
        <time>2012-09-08T12:16:17Z</time>
      </trkpt>
      <trkpt lat="43.0109" lon="9.42079">
        <ele>31.860718</ele>
        <time>2012-09-08T12:16:19Z</time>
      </trkpt>
      <trkpt lat="43.01077" lon="9.42063">
        <ele>33.302856</ele>
        <time>2012-09-08T12:16:38Z</time>
      </trkpt>
      <trkpt lat="43.0107" lon="9.42049">
        <ele>32.341553</ele>
        <time>2012-09-08T12:16:55Z</time>
      </trkpt>
      <trkpt lat="43.0107" lon="9.42048">
        <ele>33.302856</ele>
        <time>2012-09-08T12:17:17Z</time>
      </trkpt>
      <trkpt lat="43.01075" lon="9.42042">
        <ele>30.899536</ele>
        <time>2012-09-08T12:17:45Z</time>
      </trkpt>
      <trkpt lat="43.01074" lon="9.42042">
        <ele>30.418823</ele>
        <time>2012-09-08T12:18:09Z</time>
      </trkpt>
      <trkpt lat="43.01069" lon="9.42042">
        <ele>31.380127</ele>
        <time>2012-09-08T12:18:24Z</time>
      </trkpt>
      <trkpt lat="43.01069" lon="9.42034">
        <ele>31.860718</ele>
        <time>2012-09-08T12:18:37Z</time>
      </trkpt>
      <trkpt lat="43.01069" lon="9.42027">
        <ele>30.899536</ele>
        <time>2012-09-08T12:18:52Z</time>
      </trkpt>
      <trkpt lat="43.01073" lon="9.42012">
        <ele>30.418823</ele>
        <time>2012-09-08T12:19:08Z</time>
      </trkpt>
      <trkpt lat="43.01073" lon="9.41994">
        <ele>29.45752</ele>
        <time>2012-09-08T12:19:20Z</time>
      </trkpt>
      <trkpt lat="43.01067" lon="9.41981">
        <ele>29.93811</ele>
        <time>2012-09-08T12:19:31Z</time>
      </trkpt>
      <trkpt lat="43.01069" lon="9.41956">
        <ele>29.93811</ele>
        <time>2012-09-08T12:19:51Z</time>
      </trkpt>
      <trkpt lat="43.01072" lon="9.41937">
        <ele>27.534912</ele>
        <time>2012-09-08T12:20:10Z</time>
      </trkpt>
      <trkpt lat="43.01071" lon="9.41929">
        <ele>26.573608</ele>
        <time>2012-09-08T12:20:25Z</time>
      </trkpt>
      <trkpt lat="43.01074" lon="9.41911">
        <ele>25.131714</ele>
        <time>2012-09-08T12:20:44Z</time>
      </trkpt>
      <trkpt lat="43.01072" lon="9.41898">
        <ele>24.170288</ele>
        <time>2012-09-08T12:21:01Z</time>
      </trkpt>
      <trkpt lat="43.01075" lon="9.41894">
        <ele>22.728271</ele>
        <time>2012-09-08T12:21:15Z</time>
      </trkpt>
      <trkpt lat="43.01073" lon="9.41893">
        <ele>23.208984</ele>
        <time>2012-09-08T12:21:19Z</time>
      </trkpt>
      <trkpt lat="43.01066" lon="9.41878">
        <ele>22.247559</ele>
        <time>2012-09-08T12:21:32Z</time>
      </trkpt>
      <trkpt lat="43.01059" lon="9.41856">
        <ele>21.286377</ele>
        <time>2012-09-08T12:21:51Z</time>
      </trkpt>
      <trkpt lat="43.01053" lon="9.41846">
        <ele>20.805664</ele>
        <time>2012-09-08T12:22:07Z</time>
      </trkpt>
      <trkpt lat="43.01049" lon="9.41837">
        <ele>19.36377</ele>
        <time>2012-09-08T12:22:23Z</time>
      </trkpt>
      <trkpt lat="43.01043" lon="9.41828">
        <ele>18.402344</ele>
        <time>2012-09-08T12:22:39Z</time>
      </trkpt>
      <trkpt lat="43.01034" lon="9.41813">
        <ele>15.999023</ele>
        <time>2012-09-08T12:22:59Z</time>
      </trkpt>
      <trkpt lat="43.01027" lon="9.41804">
        <ele>15.03772</ele>
        <time>2012-09-08T12:23:13Z</time>
      </trkpt>
      <trkpt lat="43.0102" lon="9.41795">
        <ele>14.076416</ele>
        <time>2012-09-08T12:23:24Z</time>
      </trkpt>
      <trkpt lat="43.01016" lon="9.41791">
        <ele>14.076416</ele>
        <time>2012-09-08T12:23:29Z</time>
      </trkpt>
      <trkpt lat="43.01007" lon="9.41778">
        <ele>13.115112</ele>
        <time>2012-09-08T12:23:44Z</time>
      </trkpt>
      <trkpt lat="43.00991" lon="9.41769">
        <ele>13.115112</ele>
        <time>2012-09-08T12:24:02Z</time>
      </trkpt>
      <trkpt lat="43.00985" lon="9.4176">
        <ele>13.115112</ele>
        <time>2012-09-08T12:24:18Z</time>
      </trkpt>
      <trkpt lat="43.00986" lon="9.41747">
        <ele>11.673218</ele>
        <time>2012-09-08T12:24:34Z</time>
      </trkpt>
      <trkpt lat="43.0098" lon="9.41736">
        <ele>11.673218</ele>
        <time>2012-09-08T12:24:48Z</time>
      </trkpt>
      <trkpt lat="43.00964" lon="9.41712">
        <ele>11.673218</ele>
        <time>2012-09-08T12:25:11Z</time>
      </trkpt>
      <trkpt lat="43.0096" lon="9.41707">
        <ele>12.153809</ele>
        <time>2012-09-08T12:25:25Z</time>
      </trkpt>
      <trkpt lat="43.00961" lon="9.41699">
        <ele>11.673218</ele>
        <time>2012-09-08T12:25:33Z</time>
      </trkpt>
      <trkpt lat="43.0096" lon="9.41684">
        <ele>11.192505</ele>
        <time>2012-09-08T12:25:44Z</time>
      </trkpt>
      <trkpt lat="43.00948" lon="9.41667">
        <ele>10.711792</ele>
        <time>2012-09-08T12:26:04Z</time>
      </trkpt>
      <trkpt lat="43.00944" lon="9.4166">
        <ele>10.711792</ele>
        <time>2012-09-08T12:26:11Z</time>
      </trkpt>
      <trkpt lat="43.00943" lon="9.41655">
        <ele>10.711792</ele>
        <time>2012-09-08T12:26:15Z</time>
      </trkpt>
      <trkpt lat="43.00928" lon="9.41626">
        <ele>11.192505</ele>
        <time>2012-09-08T12:26:39Z</time>
      </trkpt>
      <trkpt lat="43.00911" lon="9.41611">
        <ele>11.673218</ele>
        <time>2012-09-08T12:26:59Z</time>
      </trkpt>
      <trkpt lat="43.00895" lon="9.41594">
        <ele>9.269897</ele>
        <time>2012-09-08T12:27:19Z</time>
      </trkpt>
      <trkpt lat="43.00871" lon="9.41578">
        <ele>9.269897</ele>
        <time>2012-09-08T12:27:45Z</time>
      </trkpt>
      <trkpt lat="43.00855" lon="9.41578">
        <ele>7.827881</ele>
        <time>2012-09-08T12:28:06Z</time>
      </trkpt>
      <trkpt lat="43.0085" lon="9.41582">
        <ele>6.385864</ele>
        <time>2012-09-08T12:28:13Z</time>
      </trkpt>
      <trkpt lat="43.00826" lon="9.41593">
        <ele>6.385864</ele>
        <time>2012-09-08T12:28:36Z</time>
      </trkpt>
      <trkpt lat="43.00805" lon="9.41589">
        <ele>5.424561</ele>
        <time>2012-09-08T12:28:56Z</time>
      </trkpt>
      <trkpt lat="43.0078" lon="9.41577">
        <ele>4.943848</ele>
        <time>2012-09-08T12:29:19Z</time>
      </trkpt>
      <trkpt lat="43.0076" lon="9.41568">
        <ele>5.905273</ele>
        <time>2012-09-08T12:29:38Z</time>
      </trkpt>
      <trkpt lat="43.00743" lon="9.41557">
        <ele>5.424561</ele>
        <time>2012-09-08T12:29:57Z</time>
      </trkpt>
      <trkpt lat="43.00726" lon="9.41541">
        <ele>6.866455</ele>
        <time>2012-09-08T12:30:18Z</time>
      </trkpt>
      <trkpt lat="43.00709" lon="9.41526">
        <ele>5.905273</ele>
        <time>2012-09-08T12:30:37Z</time>
      </trkpt>
      <trkpt lat="43.00695" lon="9.41503">
        <ele>5.424561</ele>
        <time>2012-09-08T12:30:58Z</time>
      </trkpt>
      <trkpt lat="43.00676" lon="9.41481">
        <ele>6.385864</ele>
        <time>2012-09-08T12:31:20Z</time>
      </trkpt>
      <trkpt lat="43.00661" lon="9.41458">
        <ele>5.905273</ele>
        <time>2012-09-08T12:31:41Z</time>
      </trkpt>
      <trkpt lat="43.00653" lon="9.41431">
        <ele>6.866455</ele>
        <time>2012-09-08T12:32:02Z</time>
      </trkpt>
      <trkpt lat="43.00641" lon="9.41403">
        <ele>5.905273</ele>
        <time>2012-09-08T12:32:24Z</time>
      </trkpt>
      <trkpt lat="43.00631" lon="9.41377">
        <ele>7.347168</ele>
        <time>2012-09-08T12:32:44Z</time>
      </trkpt>
      <trkpt lat="43.00625" lon="9.41349">
        <ele>6.866455</ele>
        <time>2012-09-08T12:33:05Z</time>
      </trkpt>
      <trkpt lat="43.00616" lon="9.41323">
        <ele>5.424561</ele>
        <time>2012-09-08T12:33:25Z</time>
      </trkpt>
      <trkpt lat="43.00611" lon="9.41295">
        <ele>4.943848</ele>
        <time>2012-09-08T12:33:45Z</time>
      </trkpt>
      <trkpt lat="43.00602" lon="9.41268">
        <ele>4.943848</ele>
        <time>2012-09-08T12:34:05Z</time>
      </trkpt>
      <trkpt lat="43.00595" lon="9.41235">
        <ele>4.463257</ele>
        <time>2012-09-08T12:34:28Z</time>
      </trkpt>
      <trkpt lat="43.00587" lon="9.412">
        <ele>3.982666</ele>
        <time>2012-09-08T12:34:53Z</time>
      </trkpt>
      <trkpt lat="43.00577" lon="9.41163">
        <ele>4.463257</ele>
        <time>2012-09-08T12:35:19Z</time>
      </trkpt>
      <trkpt lat="43.00576" lon="9.4112">
        <ele>4.463257</ele>
        <time>2012-09-08T12:35:46Z</time>
      </trkpt>
      <trkpt lat="43.00579" lon="9.41102">
        <ele>4.463257</ele>
        <time>2012-09-08T12:35:59Z</time>
      </trkpt>
      <trkpt lat="43.0057" lon="9.41095">
        <ele>6.866455</ele>
        <time>2012-09-08T12:36:12Z</time>
      </trkpt>
      <trkpt lat="43.0057" lon="9.41088">
        <ele>6.866455</ele>
        <time>2012-09-08T12:36:19Z</time>
      </trkpt>
      <trkpt lat="43.00561" lon="9.41098">
        <ele>7.827881</ele>
        <time>2012-09-08T12:36:37Z</time>
      </trkpt>
      <trkpt lat="43.00558" lon="9.41098">
        <ele>6.866455</ele>
        <time>2012-09-08T12:36:42Z</time>
      </trkpt>
      <trkpt lat="43.00556" lon="9.41093">
        <ele>6.866455</ele>
        <time>2012-09-08T12:36:49Z</time>
      </trkpt>
      <trkpt lat="43.00562" lon="9.41067">
        <ele>6.385864</ele>
        <time>2012-09-08T12:37:08Z</time>
      </trkpt>
      <trkpt lat="43.00565" lon="9.41033">
        <ele>7.347168</ele>
        <time>2012-09-08T12:37:31Z</time>
      </trkpt>
      <trkpt lat="43.00557" lon="9.40999">
        <ele>7.827881</ele>
        <time>2012-09-08T12:37:52Z</time>
      </trkpt>
      <trkpt lat="43.00552" lon="9.40972">
        <ele>7.827881</ele>
        <time>2012-09-08T12:38:09Z</time>
      </trkpt>
      <trkpt lat="43.00545" lon="9.4094">
        <ele>8.308594</ele>
        <time>2012-09-08T12:38:30Z</time>
      </trkpt>
      <trkpt lat="43.0054" lon="9.40908">
        <ele>7.347168</ele>
        <time>2012-09-08T12:38:52Z</time>
      </trkpt>
      <trkpt lat="43.00543" lon="9.4088">
        <ele>7.347168</ele>
        <time>2012-09-08T12:39:10Z</time>
      </trkpt>
      <trkpt lat="43.00541" lon="9.40856">
        <ele>7.827881</ele>
        <time>2012-09-08T12:39:31Z</time>
      </trkpt>
      <trkpt lat="43.0054" lon="9.40832">
        <ele>6.866455</ele>
        <time>2012-09-08T12:39:53Z</time>
      </trkpt>
      <trkpt lat="43.00537" lon="9.40797">
        <ele>5.905273</ele>
        <time>2012-09-08T12:40:16Z</time>
      </trkpt>
      <trkpt lat="43.00538" lon="9.40765">
        <ele>6.385864</ele>
        <time>2012-09-08T12:40:37Z</time>
      </trkpt>
      <trkpt lat="43.00538" lon="9.40753">
        <ele>6.385864</ele>
        <time>2012-09-08T12:40:45Z</time>
      </trkpt>
      <trkpt lat="43.00542" lon="9.40726">
        <ele>6.385864</ele>
        <time>2012-09-08T12:41:04Z</time>
      </trkpt>
      <trkpt lat="43.00538" lon="9.407">
        <ele>6.385864</ele>
        <time>2012-09-08T12:41:23Z</time>
      </trkpt>
      <trkpt lat="43.00537" lon="9.40673">
        <ele>5.905273</ele>
        <time>2012-09-08T12:41:41Z</time>
      </trkpt>
      <trkpt lat="43.00533" lon="9.40641">
        <ele>5.424561</ele>
        <time>2012-09-08T12:42:02Z</time>
      </trkpt>
      <trkpt lat="43.00541" lon="9.40607">
        <ele>4.943848</ele>
        <time>2012-09-08T12:42:24Z</time>
      </trkpt>
      <trkpt lat="43.00555" lon="9.40581">
        <ele>5.424561</ele>
        <time>2012-09-08T12:42:44Z</time>
      </trkpt>
      <trkpt lat="43.00556" lon="9.40549">
        <ele>4.943848</ele>
        <time>2012-09-08T12:43:06Z</time>
      </trkpt>
      <trkpt lat="43.00549" lon="9.40524">
        <ele>3.501953</ele>
        <time>2012-09-08T12:43:24Z</time>
      </trkpt>
      <trkpt lat="43.00549" lon="9.40523">
        <ele>4.463257</ele>
        <time>2012-09-08T12:43:25Z</time>
      </trkpt>
      <trkpt lat="43.00539" lon="9.40501">
        <ele>3.982666</ele>
        <time>2012-09-08T12:43:46Z</time>
      </trkpt>
      <trkpt lat="43.00541" lon="9.40502">
        <ele>3.982666</ele>
        <time>2012-09-08T12:43:48Z</time>
      </trkpt>
      <trkpt lat="43.00544" lon="9.40504">
        <ele>3.982666</ele>
        <time>2012-09-08T12:43:51Z</time>
      </trkpt>
      <trkpt lat="43.00547" lon="9.4051">
        <ele>4.463257</ele>
        <time>2012-09-08T12:43:57Z</time>
      </trkpt>
      <trkpt lat="43.00548" lon="9.4054">
        <ele>4.943848</ele>
        <time>2012-09-08T12:44:18Z</time>
      </trkpt>
      <trkpt lat="43.00546" lon="9.40544">
        <ele>3.982666</ele>
        <time>2012-09-08T12:44:22Z</time>
      </trkpt>
      <trkpt lat="43.00541" lon="9.40543">
        <ele>3.501953</ele>
        <time>2012-09-08T12:44:26Z</time>
      </trkpt>
      <trkpt lat="43.00533" lon="9.4054">
        <ele>3.982666</ele>
        <time>2012-09-08T12:44:35Z</time>
      </trkpt>
      <trkpt lat="43.00522" lon="9.40535">
        <ele>3.982666</ele>
        <time>2012-09-08T12:44:47Z</time>
      </trkpt>
      <trkpt lat="43.00521" lon="9.40534">
        <ele>3.501953</ele>
        <time>2012-09-08T12:44:48Z</time>
      </trkpt>
      <trkpt lat="43.00503" lon="9.40514">
        <ele>4.943848</ele>
        <time>2012-09-08T12:45:08Z</time>
      </trkpt>
      <trkpt lat="43.00484" lon="9.40508">
        <ele>4.943848</ele>
        <time>2012-09-08T12:45:25Z</time>
      </trkpt>
      <trkpt lat="43.00471" lon="9.405">
        <ele>4.943848</ele>
        <time>2012-09-08T12:45:38Z</time>
      </trkpt>
      <trkpt lat="43.00467" lon="9.40499">
        <ele>4.463257</ele>
        <time>2012-09-08T12:45:42Z</time>
      </trkpt>
      <trkpt lat="43.00451" lon="9.40495">
        <ele>4.463257</ele>
        <time>2012-09-08T12:45:59Z</time>
      </trkpt>
      <trkpt lat="43.00451" lon="9.40494">
        <ele>4.463257</ele>
        <time>2012-09-08T12:46:00Z</time>
      </trkpt>
      <trkpt lat="43.00446" lon="9.40482">
        <ele>3.501953</ele>
        <time>2012-09-08T12:46:17Z</time>
      </trkpt>
      <trkpt lat="43.00449" lon="9.40485">
        <ele>3.982666</ele>
        <time>2012-09-08T12:46:31Z</time>
      </trkpt>
      <trkpt lat="43.00445" lon="9.40479">
        <ele>3.982666</ele>
        <time>2012-09-08T12:46:38Z</time>
      </trkpt>
      <trkpt lat="43.0047" lon="9.40465">
        <ele>4.463257</ele>
        <time>2012-09-08T12:47:00Z</time>
      </trkpt>
      <trkpt lat="43.00487" lon="9.40465">
        <ele>4.943848</ele>
        <time>2012-09-08T12:47:14Z</time>
      </trkpt>
      <trkpt lat="43.00503" lon="9.40438">
        <ele>5.905273</ele>
        <time>2012-09-08T12:47:36Z</time>
      </trkpt>
      <trkpt lat="43.00521" lon="9.40412">
        <ele>6.385864</ele>
        <time>2012-09-08T12:47:57Z</time>
      </trkpt>
      <trkpt lat="43.0054" lon="9.40391">
        <ele>6.866455</ele>
        <time>2012-09-08T12:48:17Z</time>
      </trkpt>
      <trkpt lat="43.00564" lon="9.40369">
        <ele>7.827881</ele>
        <time>2012-09-08T12:48:41Z</time>
      </trkpt>
      <trkpt lat="43.00584" lon="9.40342">
        <ele>7.827881</ele>
        <time>2012-09-08T12:49:06Z</time>
      </trkpt>
      <trkpt lat="43.0059" lon="9.40331">
        <ele>5.905273</ele>
        <time>2012-09-08T12:49:15Z</time>
      </trkpt>
      <trkpt lat="43.00609" lon="9.40304">
        <ele>4.943848</ele>
        <time>2012-09-08T12:49:38Z</time>
      </trkpt>
      <trkpt lat="43.00618" lon="9.40274">
        <ele>3.982666</ele>
        <time>2012-09-08T12:49:58Z</time>
      </trkpt>
      <trkpt lat="43.00614" lon="9.40249">
        <ele>5.424561</ele>
        <time>2012-09-08T12:50:17Z</time>
      </trkpt>
      <trkpt lat="43.00607" lon="9.40226">
        <ele>4.943848</ele>
        <time>2012-09-08T12:50:34Z</time>
      </trkpt>
      <trkpt lat="43.0062" lon="9.40197">
        <ele>5.424561</ele>
        <time>2012-09-08T12:50:56Z</time>
      </trkpt>
      <trkpt lat="43.00626" lon="9.40206">
        <ele>3.501953</ele>
        <time>2012-09-08T12:51:09Z</time>
      </trkpt>
      <trkpt lat="43.00633" lon="9.40204">
        <ele>3.02124</ele>
        <time>2012-09-08T12:51:31Z</time>
      </trkpt>
      <trkpt lat="43.00633" lon="9.40207">
        <ele>3.501953</ele>
        <time>2012-09-08T12:51:48Z</time>
      </trkpt>
      <trkpt lat="43.00626" lon="9.40205">
        <ele>3.02124</ele>
        <time>2012-09-08T12:52:03Z</time>
      </trkpt>
      <trkpt lat="43.0063" lon="9.40206">
        <ele>3.02124</ele>
        <time>2012-09-08T12:52:12Z</time>
      </trkpt>
      <trkpt lat="43.00644" lon="9.40182">
        <ele>3.982666</ele>
        <time>2012-09-08T12:52:34Z</time>
      </trkpt>
      <trkpt lat="43.0064" lon="9.40178">
        <ele>4.943848</ele>
        <time>2012-09-08T12:52:47Z</time>
      </trkpt>
      <trkpt lat="43.00639" lon="9.40177">
        <ele>4.463257</ele>
        <time>2012-09-08T12:52:51Z</time>
      </trkpt>
      <trkpt lat="43.00632" lon="9.40173">
        <ele>5.424561</ele>
        <time>2012-09-08T12:52:58Z</time>
      </trkpt>
      <trkpt lat="43.00617" lon="9.40199">
        <ele>4.943848</ele>
        <time>2012-09-08T12:53:20Z</time>
      </trkpt>
      <trkpt lat="43.00605" lon="9.40221">
        <ele>4.943848</ele>
        <time>2012-09-08T12:53:41Z</time>
      </trkpt>
      <trkpt lat="43.00602" lon="9.40228">
        <ele>5.424561</ele>
        <time>2012-09-08T12:54:00Z</time>
      </trkpt>
      <trkpt lat="43.00602" lon="9.40228">
        <ele>5.424561</ele>
        <time>2012-09-08T12:54:21Z</time>
      </trkpt>
    </trkseg>
  </trk>
</gpx>